<?xml version="1.0" encoding="UTF-8" standalone="no" ?>
<gpx xmlns="http://www.topografix.com/GPX/1/1" xmlns:xsi="http://www.w3.org/2001/XMLSchema-instance" xsi:schemaLocation="http://www.topografix.com/GPX/1/1 http://www.topografix.com/GPX/1/1/gpx.xsd" version="1.1" creator="VisuGPX - https://www.visugpx.com">
  <metadata>
    <name>Un circuit des {Givrés à Villefranche}</name>
    <desc><![CDATA[Encore pour vous un bon moyen de parcourir et découvrir l'Aveyron et ses magnifiques chemins et sentiers variés. Comme vous pouvez le pré visualiser sur la carte PDF, certains des portions sont pour la plupart peu fréquentées voir même inconnu de la majorité, et pour cause, les chemins empruntés sont totalement inconnus des cartographies IGN et autre. Alors bonne balade à tous! www.velo12.com]]></desc>
  </metadata>
  <trk>
    <name><![CDATA[159GIVRES_de_Villefranche_de_Rouergue_11_03_07]]></name>
    <trkseg>
      <trkpt lat="44.35467" lon="1.99884">
        <ele>341</ele>
        <time>2007-03-11T08:00:42.000Z</time>
      </trkpt>
      <trkpt lat="44.35467" lon="1.99884">
        <ele>341</ele>
        <time>2007-03-11T08:00:43.000Z</time>
      </trkpt>
      <trkpt lat="44.35468" lon="1.99881">
        <ele>342</ele>
        <time>2007-03-11T08:02:31.000Z</time>
      </trkpt>
      <trkpt lat="44.3547" lon="1.99881">
        <ele>344</ele>
        <time>2007-03-11T08:09:58.000Z</time>
      </trkpt>
      <trkpt lat="44.35474" lon="1.99891">
        <ele>344</ele>
        <time>2007-03-11T08:10:12.000Z</time>
      </trkpt>
      <trkpt lat="44.35474" lon="1.99892">
        <ele>345</ele>
        <time>2007-03-11T08:10:49.000Z</time>
      </trkpt>
      <trkpt lat="44.35474" lon="1.99898">
        <ele>344</ele>
        <time>2007-03-11T08:11:19.000Z</time>
      </trkpt>
      <trkpt lat="44.35473" lon="1.99902">
        <ele>344</ele>
        <time>2007-03-11T08:12:08.000Z</time>
      </trkpt>
      <trkpt lat="44.35474" lon="1.99902">
        <ele>345</ele>
        <time>2007-03-11T08:12:26.000Z</time>
      </trkpt>
      <trkpt lat="44.35472" lon="1.99919">
        <ele>344</ele>
        <time>2007-03-11T08:12:33.000Z</time>
      </trkpt>
      <trkpt lat="44.35455" lon="1.99942">
        <ele>342</ele>
        <time>2007-03-11T08:12:42.000Z</time>
      </trkpt>
      <trkpt lat="44.35458" lon="1.99953">
        <ele>342</ele>
        <time>2007-03-11T08:12:46.000Z</time>
      </trkpt>
      <trkpt lat="44.35473" lon="1.9997">
        <ele>341</ele>
        <time>2007-03-11T08:12:51.000Z</time>
      </trkpt>
      <trkpt lat="44.35493" lon="1.99994">
        <ele>340</ele>
        <time>2007-03-11T08:12:56.000Z</time>
      </trkpt>
      <trkpt lat="44.35503" lon="2.00047">
        <ele>338</ele>
        <time>2007-03-11T08:13:03.000Z</time>
      </trkpt>
      <trkpt lat="44.35474" lon="2.00096">
        <ele>338</ele>
        <time>2007-03-11T08:13:11.000Z</time>
      </trkpt>
      <trkpt lat="44.35461" lon="2.00112">
        <ele>338</ele>
        <time>2007-03-11T08:13:14.000Z</time>
      </trkpt>
      <trkpt lat="44.35426" lon="2.00142">
        <ele>337</ele>
        <time>2007-03-11T08:13:21.000Z</time>
      </trkpt>
      <trkpt lat="44.35408" lon="2.00168">
        <ele>335</ele>
        <time>2007-03-11T08:13:25.000Z</time>
      </trkpt>
      <trkpt lat="44.35396" lon="2.00211">
        <ele>332</ele>
        <time>2007-03-11T08:13:29.000Z</time>
      </trkpt>
      <trkpt lat="44.3539" lon="2.00264">
        <ele>328</ele>
        <time>2007-03-11T08:13:33.000Z</time>
      </trkpt>
      <trkpt lat="44.35375" lon="2.00364">
        <ele>324</ele>
        <time>2007-03-11T08:13:40.000Z</time>
      </trkpt>
      <trkpt lat="44.35358" lon="2.00508">
        <ele>326</ele>
        <time>2007-03-11T08:13:53.000Z</time>
      </trkpt>
      <trkpt lat="44.35346" lon="2.00643">
        <ele>327</ele>
        <time>2007-03-11T08:14:10.000Z</time>
      </trkpt>
      <trkpt lat="44.35339" lon="2.00705">
        <ele>328</ele>
        <time>2007-03-11T08:14:18.000Z</time>
      </trkpt>
      <trkpt lat="44.35323" lon="2.00716">
        <ele>329</ele>
        <time>2007-03-11T08:14:23.000Z</time>
      </trkpt>
      <trkpt lat="44.35283" lon="2.00703">
        <ele>332</ele>
        <time>2007-03-11T08:14:37.000Z</time>
      </trkpt>
      <trkpt lat="44.3524" lon="2.00696">
        <ele>332</ele>
        <time>2007-03-11T08:14:52.000Z</time>
      </trkpt>
      <trkpt lat="44.35173" lon="2.0069">
        <ele>334</ele>
        <time>2007-03-11T08:15:12.000Z</time>
      </trkpt>
      <trkpt lat="44.35145" lon="2.00685">
        <ele>337</ele>
        <time>2007-03-11T08:15:26.000Z</time>
      </trkpt>
      <trkpt lat="44.35124" lon="2.00683">
        <ele>340</ele>
        <time>2007-03-11T08:15:37.000Z</time>
      </trkpt>
      <trkpt lat="44.35083" lon="2.00675">
        <ele>339</ele>
        <time>2007-03-11T08:15:52.000Z</time>
      </trkpt>
      <trkpt lat="44.35063" lon="2.00658">
        <ele>340</ele>
        <time>2007-03-11T08:15:58.000Z</time>
      </trkpt>
      <trkpt lat="44.35004" lon="2.006">
        <ele>340</ele>
        <time>2007-03-11T08:16:14.000Z</time>
      </trkpt>
      <trkpt lat="44.34964" lon="2.00571">
        <ele>341</ele>
        <time>2007-03-11T08:16:27.000Z</time>
      </trkpt>
      <trkpt lat="44.34927" lon="2.00563">
        <ele>344</ele>
        <time>2007-03-11T08:16:39.000Z</time>
      </trkpt>
      <trkpt lat="44.34889" lon="2.00561">
        <ele>348</ele>
        <time>2007-03-11T08:16:52.000Z</time>
      </trkpt>
      <trkpt lat="44.34854" lon="2.00533">
        <ele>349</ele>
        <time>2007-03-11T08:17:06.000Z</time>
      </trkpt>
      <trkpt lat="44.34812" lon="2.00517">
        <ele>351</ele>
        <time>2007-03-11T08:17:22.000Z</time>
      </trkpt>
      <trkpt lat="44.34782" lon="2.00513">
        <ele>354</ele>
        <time>2007-03-11T08:17:32.000Z</time>
      </trkpt>
      <trkpt lat="44.34779" lon="2.00513">
        <ele>354</ele>
        <time>2007-03-11T08:17:33.000Z</time>
      </trkpt>
      <trkpt lat="44.34715" lon="2.00522">
        <ele>357</ele>
        <time>2007-03-11T08:17:53.000Z</time>
      </trkpt>
      <trkpt lat="44.3467" lon="2.00535">
        <ele>357</ele>
        <time>2007-03-11T08:18:08.000Z</time>
      </trkpt>
      <trkpt lat="44.34604" lon="2.00565">
        <ele>356</ele>
        <time>2007-03-11T08:18:27.000Z</time>
      </trkpt>
      <trkpt lat="44.34578" lon="2.00553">
        <ele>355</ele>
        <time>2007-03-11T08:18:33.000Z</time>
      </trkpt>
      <trkpt lat="44.34513" lon="2.00494">
        <ele>355</ele>
        <time>2007-03-11T08:18:48.000Z</time>
      </trkpt>
      <trkpt lat="44.34491" lon="2.00495">
        <ele>354</ele>
        <time>2007-03-11T08:18:53.000Z</time>
      </trkpt>
      <trkpt lat="44.3439" lon="2.00547">
        <ele>351</ele>
        <time>2007-03-11T08:19:13.000Z</time>
      </trkpt>
      <trkpt lat="44.34349" lon="2.00577">
        <ele>349</ele>
        <time>2007-03-11T08:19:21.000Z</time>
      </trkpt>
      <trkpt lat="44.34338" lon="2.00589">
        <ele>349</ele>
        <time>2007-03-11T08:19:23.000Z</time>
      </trkpt>
      <trkpt lat="44.34316" lon="2.00615">
        <ele>344</ele>
        <time>2007-03-11T08:19:27.000Z</time>
      </trkpt>
      <trkpt lat="44.34257" lon="2.00658">
        <ele>342</ele>
        <time>2007-03-11T08:19:35.000Z</time>
      </trkpt>
      <trkpt lat="44.34201" lon="2.00681">
        <ele>339</ele>
        <time>2007-03-11T08:19:42.000Z</time>
      </trkpt>
      <trkpt lat="44.34193" lon="2.00684">
        <ele>339</ele>
        <time>2007-03-11T08:19:43.000Z</time>
      </trkpt>
      <trkpt lat="44.34169" lon="2.00697">
        <ele>338</ele>
        <time>2007-03-11T08:19:46.000Z</time>
      </trkpt>
      <trkpt lat="44.34002" lon="2.00748">
        <ele>333</ele>
        <time>2007-03-11T08:20:08.000Z</time>
      </trkpt>
      <trkpt lat="44.33982" lon="2.00753">
        <ele>330</ele>
        <time>2007-03-11T08:20:11.000Z</time>
      </trkpt>
      <trkpt lat="44.33957" lon="2.0079">
        <ele>327</ele>
        <time>2007-03-11T08:20:16.000Z</time>
      </trkpt>
      <trkpt lat="44.33944" lon="2.00817">
        <ele>322</ele>
        <time>2007-03-11T08:20:19.000Z</time>
      </trkpt>
      <trkpt lat="44.33938" lon="2.00822">
        <ele>320</ele>
        <time>2007-03-11T08:20:21.000Z</time>
      </trkpt>
      <trkpt lat="44.33934" lon="2.00809">
        <ele>318</ele>
        <time>2007-03-11T08:20:23.000Z</time>
      </trkpt>
      <trkpt lat="44.33924" lon="2.00744">
        <ele>314</ele>
        <time>2007-03-11T08:20:28.000Z</time>
      </trkpt>
      <trkpt lat="44.33912" lon="2.0067">
        <ele>305</ele>
        <time>2007-03-11T08:20:34.000Z</time>
      </trkpt>
      <trkpt lat="44.33909" lon="2.00655">
        <ele>305</ele>
        <time>2007-03-11T08:20:35.000Z</time>
      </trkpt>
      <trkpt lat="44.33904" lon="2.00615">
        <ele>302</ele>
        <time>2007-03-11T08:20:38.000Z</time>
      </trkpt>
      <trkpt lat="44.33896" lon="2.00573">
        <ele>300</ele>
        <time>2007-03-11T08:20:41.000Z</time>
      </trkpt>
      <trkpt lat="44.33893" lon="2.0056">
        <ele>299</ele>
        <time>2007-03-11T08:20:42.000Z</time>
      </trkpt>
      <trkpt lat="44.33883" lon="2.00548">
        <ele>296</ele>
        <time>2007-03-11T08:20:46.000Z</time>
      </trkpt>
      <trkpt lat="44.3388" lon="2.00561">
        <ele>293</ele>
        <time>2007-03-11T08:20:48.000Z</time>
      </trkpt>
      <trkpt lat="44.33872" lon="2.00598">
        <ele>287</ele>
        <time>2007-03-11T08:20:52.000Z</time>
      </trkpt>
      <trkpt lat="44.33869" lon="2.00627">
        <ele>282</ele>
        <time>2007-03-11T08:20:55.000Z</time>
      </trkpt>
      <trkpt lat="44.33865" lon="2.00635">
        <ele>282</ele>
        <time>2007-03-11T08:20:56.000Z</time>
      </trkpt>
      <trkpt lat="44.33847" lon="2.00666">
        <ele>277</ele>
        <time>2007-03-11T08:21:00.000Z</time>
      </trkpt>
      <trkpt lat="44.33831" lon="2.00706">
        <ele>270</ele>
        <time>2007-03-11T08:21:05.000Z</time>
      </trkpt>
      <trkpt lat="44.33825" lon="2.00713">
        <ele>268</ele>
        <time>2007-03-11T08:21:07.000Z</time>
      </trkpt>
      <trkpt lat="44.33827" lon="2.00702">
        <ele>268</ele>
        <time>2007-03-11T08:21:12.000Z</time>
      </trkpt>
      <trkpt lat="44.33835" lon="2.00646">
        <ele>268</ele>
        <time>2007-03-11T08:21:30.000Z</time>
      </trkpt>
      <trkpt lat="44.33838" lon="2.00584">
        <ele>270</ele>
        <time>2007-03-11T08:21:47.000Z</time>
      </trkpt>
      <trkpt lat="44.33829" lon="2.00517">
        <ele>271</ele>
        <time>2007-03-11T08:22:03.000Z</time>
      </trkpt>
      <trkpt lat="44.33805" lon="2.004">
        <ele>271</ele>
        <time>2007-03-11T08:22:23.000Z</time>
      </trkpt>
      <trkpt lat="44.33803" lon="2.00312">
        <ele>273</ele>
        <time>2007-03-11T08:22:37.000Z</time>
      </trkpt>
      <trkpt lat="44.3383" lon="2.0022">
        <ele>275</ele>
        <time>2007-03-11T08:22:52.000Z</time>
      </trkpt>
      <trkpt lat="44.33864" lon="2.0013">
        <ele>277</ele>
        <time>2007-03-11T08:23:09.000Z</time>
      </trkpt>
      <trkpt lat="44.33916" lon="2.00019">
        <ele>281</ele>
        <time>2007-03-11T08:23:33.000Z</time>
      </trkpt>
      <trkpt lat="44.33973" lon="1.99919">
        <ele>282</ele>
        <time>2007-03-11T08:23:54.000Z</time>
      </trkpt>
      <trkpt lat="44.34004" lon="1.99858">
        <ele>280</ele>
        <time>2007-03-11T08:24:06.000Z</time>
      </trkpt>
      <trkpt lat="44.34017" lon="1.99841">
        <ele>281</ele>
        <time>2007-03-11T08:24:10.000Z</time>
      </trkpt>
      <trkpt lat="44.34027" lon="1.99829">
        <ele>282</ele>
        <time>2007-03-11T08:24:13.000Z</time>
      </trkpt>
      <trkpt lat="44.34105" lon="1.99741">
        <ele>285</ele>
        <time>2007-03-11T08:24:37.000Z</time>
      </trkpt>
      <trkpt lat="44.34172" lon="1.99614">
        <ele>288</ele>
        <time>2007-03-11T08:25:03.000Z</time>
      </trkpt>
      <trkpt lat="44.34176" lon="1.9961">
        <ele>288</ele>
        <time>2007-03-11T08:25:04.000Z</time>
      </trkpt>
      <trkpt lat="44.34332" lon="1.99447">
        <ele>295</ele>
        <time>2007-03-11T08:25:50.000Z</time>
      </trkpt>
      <trkpt lat="44.34359" lon="1.99394">
        <ele>293</ele>
        <time>2007-03-11T08:26:03.000Z</time>
      </trkpt>
      <trkpt lat="44.34284" lon="1.99338">
        <ele>293</ele>
        <time>2007-03-11T08:26:13.000Z</time>
      </trkpt>
      <trkpt lat="44.34282" lon="1.99335">
        <ele>294</ele>
        <time>2007-03-11T08:26:15.000Z</time>
      </trkpt>
      <trkpt lat="44.34293" lon="1.99325">
        <ele>295</ele>
        <time>2007-03-11T08:26:20.000Z</time>
      </trkpt>
      <trkpt lat="44.34297" lon="1.99315">
        <ele>298</ele>
        <time>2007-03-11T08:26:26.000Z</time>
      </trkpt>
      <trkpt lat="44.343" lon="1.99294">
        <ele>301</ele>
        <time>2007-03-11T08:26:37.000Z</time>
      </trkpt>
      <trkpt lat="44.34302" lon="1.99276">
        <ele>304</ele>
        <time>2007-03-11T08:26:49.000Z</time>
      </trkpt>
      <trkpt lat="44.34301" lon="1.99263">
        <ele>308</ele>
        <time>2007-03-11T08:26:58.000Z</time>
      </trkpt>
      <trkpt lat="44.34301" lon="1.9926">
        <ele>308</ele>
        <time>2007-03-11T08:26:59.000Z</time>
      </trkpt>
      <trkpt lat="44.34303" lon="1.99238">
        <ele>311</ele>
        <time>2007-03-11T08:27:14.000Z</time>
      </trkpt>
      <trkpt lat="44.34303" lon="1.99221">
        <ele>314</ele>
        <time>2007-03-11T08:27:25.000Z</time>
      </trkpt>
      <trkpt lat="44.34301" lon="1.99206">
        <ele>318</ele>
        <time>2007-03-11T08:27:35.000Z</time>
      </trkpt>
      <trkpt lat="44.34297" lon="1.99173">
        <ele>321</ele>
        <time>2007-03-11T08:27:53.000Z</time>
      </trkpt>
      <trkpt lat="44.34297" lon="1.99153">
        <ele>324</ele>
        <time>2007-03-11T08:28:04.000Z</time>
      </trkpt>
      <trkpt lat="44.34299" lon="1.99127">
        <ele>327</ele>
        <time>2007-03-11T08:28:19.000Z</time>
      </trkpt>
      <trkpt lat="44.34297" lon="1.99124">
        <ele>328</ele>
        <time>2007-03-11T08:28:22.000Z</time>
      </trkpt>
      <trkpt lat="44.34281" lon="1.99118">
        <ele>332</ele>
        <time>2007-03-11T08:28:36.000Z</time>
      </trkpt>
      <trkpt lat="44.3427" lon="1.99114">
        <ele>335</ele>
        <time>2007-03-11T08:28:44.000Z</time>
      </trkpt>
      <trkpt lat="44.34252" lon="1.99105">
        <ele>339</ele>
        <time>2007-03-11T08:28:58.000Z</time>
      </trkpt>
      <trkpt lat="44.3425" lon="1.99105">
        <ele>339</ele>
        <time>2007-03-11T08:28:59.000Z</time>
      </trkpt>
      <trkpt lat="44.34227" lon="1.99093">
        <ele>341</ele>
        <time>2007-03-11T08:29:18.000Z</time>
      </trkpt>
      <trkpt lat="44.34209" lon="1.99079">
        <ele>345</ele>
        <time>2007-03-11T08:29:33.000Z</time>
      </trkpt>
      <trkpt lat="44.34191" lon="1.99062">
        <ele>348</ele>
        <time>2007-03-11T08:29:48.000Z</time>
      </trkpt>
      <trkpt lat="44.34156" lon="1.99068">
        <ele>350</ele>
        <time>2007-03-11T08:30:09.000Z</time>
      </trkpt>
      <trkpt lat="44.34137" lon="1.99048">
        <ele>352</ele>
        <time>2007-03-11T08:30:24.000Z</time>
      </trkpt>
      <trkpt lat="44.34137" lon="1.99046">
        <ele>353</ele>
        <time>2007-03-11T08:30:25.000Z</time>
      </trkpt>
      <trkpt lat="44.34133" lon="1.9905">
        <ele>353</ele>
        <time>2007-03-11T08:30:35.000Z</time>
      </trkpt>
      <trkpt lat="44.34134" lon="1.99049">
        <ele>353</ele>
        <time>2007-03-11T08:30:59.000Z</time>
      </trkpt>
      <trkpt lat="44.3414" lon="1.9905">
        <ele>353</ele>
        <time>2007-03-11T08:31:28.000Z</time>
      </trkpt>
      <trkpt lat="44.3414" lon="1.9904">
        <ele>353</ele>
        <time>2007-03-11T08:31:32.000Z</time>
      </trkpt>
      <trkpt lat="44.34147" lon="1.98993">
        <ele>355</ele>
        <time>2007-03-11T08:31:47.000Z</time>
      </trkpt>
      <trkpt lat="44.34181" lon="1.98963">
        <ele>357</ele>
        <time>2007-03-11T08:32:05.000Z</time>
      </trkpt>
      <trkpt lat="44.34202" lon="1.98914">
        <ele>361</ele>
        <time>2007-03-11T08:32:21.000Z</time>
      </trkpt>
      <trkpt lat="44.34206" lon="1.98852">
        <ele>361</ele>
        <time>2007-03-11T08:32:38.000Z</time>
      </trkpt>
      <trkpt lat="44.34201" lon="1.98808">
        <ele>361</ele>
        <time>2007-03-11T08:32:48.000Z</time>
      </trkpt>
      <trkpt lat="44.34195" lon="1.98758">
        <ele>360</ele>
        <time>2007-03-11T08:32:56.000Z</time>
      </trkpt>
      <trkpt lat="44.34196" lon="1.98678">
        <ele>357</ele>
        <time>2007-03-11T08:33:06.000Z</time>
      </trkpt>
      <trkpt lat="44.34198" lon="1.98562">
        <ele>359</ele>
        <time>2007-03-11T08:33:20.000Z</time>
      </trkpt>
      <trkpt lat="44.34198" lon="1.98549">
        <ele>360</ele>
        <time>2007-03-11T08:33:23.000Z</time>
      </trkpt>
      <trkpt lat="44.34176" lon="1.985">
        <ele>363</ele>
        <time>2007-03-11T08:33:38.000Z</time>
      </trkpt>
      <trkpt lat="44.3413" lon="1.98481">
        <ele>365</ele>
        <time>2007-03-11T08:33:54.000Z</time>
      </trkpt>
      <trkpt lat="44.34103" lon="1.98473">
        <ele>368</ele>
        <time>2007-03-11T08:34:04.000Z</time>
      </trkpt>
      <trkpt lat="44.34062" lon="1.98472">
        <ele>370</ele>
        <time>2007-03-11T08:34:23.000Z</time>
      </trkpt>
      <trkpt lat="44.34046" lon="1.98467">
        <ele>372</ele>
        <time>2007-03-11T08:34:30.000Z</time>
      </trkpt>
      <trkpt lat="44.34028" lon="1.98457">
        <ele>376</ele>
        <time>2007-03-11T08:34:42.000Z</time>
      </trkpt>
      <trkpt lat="44.34008" lon="1.98445">
        <ele>378</ele>
        <time>2007-03-11T08:34:58.000Z</time>
      </trkpt>
      <trkpt lat="44.34003" lon="1.98442">
        <ele>379</ele>
        <time>2007-03-11T08:35:01.000Z</time>
      </trkpt>
      <trkpt lat="44.33976" lon="1.98458">
        <ele>376</ele>
        <time>2007-03-11T08:35:13.000Z</time>
      </trkpt>
      <trkpt lat="44.33951" lon="1.98427">
        <ele>374</ele>
        <time>2007-03-11T08:35:23.000Z</time>
      </trkpt>
      <trkpt lat="44.33907" lon="1.98367">
        <ele>368</ele>
        <time>2007-03-11T08:35:34.000Z</time>
      </trkpt>
      <trkpt lat="44.33892" lon="1.98353">
        <ele>366</ele>
        <time>2007-03-11T08:35:37.000Z</time>
      </trkpt>
      <trkpt lat="44.33822" lon="1.98268">
        <ele>366</ele>
        <time>2007-03-11T08:35:56.000Z</time>
      </trkpt>
      <trkpt lat="44.33819" lon="1.98266">
        <ele>365</ele>
        <time>2007-03-11T08:35:57.000Z</time>
      </trkpt>
      <trkpt lat="44.33803" lon="1.98243">
        <ele>364</ele>
        <time>2007-03-11T08:36:06.000Z</time>
      </trkpt>
      <trkpt lat="44.33866" lon="1.98098">
        <ele>365</ele>
        <time>2007-03-11T08:36:36.000Z</time>
      </trkpt>
      <trkpt lat="44.33902" lon="1.98055">
        <ele>367</ele>
        <time>2007-03-11T08:36:50.000Z</time>
      </trkpt>
      <trkpt lat="44.33927" lon="1.98015">
        <ele>368</ele>
        <time>2007-03-11T08:37:05.000Z</time>
      </trkpt>
      <trkpt lat="44.33952" lon="1.97965">
        <ele>367</ele>
        <time>2007-03-11T08:37:20.000Z</time>
      </trkpt>
      <trkpt lat="44.33986" lon="1.97902">
        <ele>365</ele>
        <time>2007-03-11T08:37:34.000Z</time>
      </trkpt>
      <trkpt lat="44.34017" lon="1.97856">
        <ele>365</ele>
        <time>2007-03-11T08:37:48.000Z</time>
      </trkpt>
      <trkpt lat="44.34036" lon="1.97813">
        <ele>364</ele>
        <time>2007-03-11T08:37:56.000Z</time>
      </trkpt>
      <trkpt lat="44.34077" lon="1.97742">
        <ele>360</ele>
        <time>2007-03-11T08:38:10.000Z</time>
      </trkpt>
      <trkpt lat="44.34168" lon="1.97646">
        <ele>359</ele>
        <time>2007-03-11T08:38:33.000Z</time>
      </trkpt>
      <trkpt lat="44.34219" lon="1.97597">
        <ele>362</ele>
        <time>2007-03-11T08:38:50.000Z</time>
      </trkpt>
      <trkpt lat="44.34266" lon="1.97567">
        <ele>362</ele>
        <time>2007-03-11T08:39:06.000Z</time>
      </trkpt>
      <trkpt lat="44.34268" lon="1.97567">
        <ele>364</ele>
        <time>2007-03-11T08:39:16.000Z</time>
      </trkpt>
      <trkpt lat="44.34266" lon="1.97569">
        <ele>364</ele>
        <time>2007-03-11T08:39:43.000Z</time>
      </trkpt>
      <trkpt lat="44.34262" lon="1.97555">
        <ele>362</ele>
        <time>2007-03-11T08:39:49.000Z</time>
      </trkpt>
      <trkpt lat="44.34261" lon="1.97531">
        <ele>359</ele>
        <time>2007-03-11T08:39:52.000Z</time>
      </trkpt>
      <trkpt lat="44.34255" lon="1.97485">
        <ele>353</ele>
        <time>2007-03-11T08:39:56.000Z</time>
      </trkpt>
      <trkpt lat="44.34252" lon="1.97459">
        <ele>350</ele>
        <time>2007-03-11T08:39:58.000Z</time>
      </trkpt>
      <trkpt lat="44.34247" lon="1.97419">
        <ele>343</ele>
        <time>2007-03-11T08:40:01.000Z</time>
      </trkpt>
      <trkpt lat="44.34219" lon="1.9735">
        <ele>345</ele>
        <time>2007-03-11T08:40:07.000Z</time>
      </trkpt>
      <trkpt lat="44.34211" lon="1.97326">
        <ele>348</ele>
        <time>2007-03-11T08:40:11.000Z</time>
      </trkpt>
      <trkpt lat="44.34196" lon="1.9729">
        <ele>351</ele>
        <time>2007-03-11T08:40:24.000Z</time>
      </trkpt>
      <trkpt lat="44.34191" lon="1.97272">
        <ele>354</ele>
        <time>2007-03-11T08:40:32.000Z</time>
      </trkpt>
      <trkpt lat="44.34184" lon="1.97243">
        <ele>358</ele>
        <time>2007-03-11T08:40:45.000Z</time>
      </trkpt>
      <trkpt lat="44.34178" lon="1.97211">
        <ele>361</ele>
        <time>2007-03-11T08:40:59.000Z</time>
      </trkpt>
      <trkpt lat="44.34168" lon="1.97182">
        <ele>364</ele>
        <time>2007-03-11T08:41:12.000Z</time>
      </trkpt>
      <trkpt lat="44.34167" lon="1.97177">
        <ele>365</ele>
        <time>2007-03-11T08:41:14.000Z</time>
      </trkpt>
      <trkpt lat="44.34156" lon="1.9714">
        <ele>368</ele>
        <time>2007-03-11T08:41:30.000Z</time>
      </trkpt>
      <trkpt lat="44.34156" lon="1.97138">
        <ele>368</ele>
        <time>2007-03-11T08:41:31.000Z</time>
      </trkpt>
      <trkpt lat="44.34165" lon="1.9709">
        <ele>368</ele>
        <time>2007-03-11T08:41:51.000Z</time>
      </trkpt>
      <trkpt lat="44.34164" lon="1.97023">
        <ele>367</ele>
        <time>2007-03-11T08:42:11.000Z</time>
      </trkpt>
      <trkpt lat="44.34151" lon="1.96954">
        <ele>369</ele>
        <time>2007-03-11T08:42:32.000Z</time>
      </trkpt>
      <trkpt lat="44.34141" lon="1.96912">
        <ele>372</ele>
        <time>2007-03-11T08:42:47.000Z</time>
      </trkpt>
      <trkpt lat="44.3412" lon="1.96871">
        <ele>375</ele>
        <time>2007-03-11T08:43:06.000Z</time>
      </trkpt>
      <trkpt lat="44.34112" lon="1.96831">
        <ele>377</ele>
        <time>2007-03-11T08:43:21.000Z</time>
      </trkpt>
      <trkpt lat="44.34139" lon="1.96792">
        <ele>377</ele>
        <time>2007-03-11T08:43:35.000Z</time>
      </trkpt>
      <trkpt lat="44.34174" lon="1.96725">
        <ele>377</ele>
        <time>2007-03-11T08:43:50.000Z</time>
      </trkpt>
      <trkpt lat="44.34187" lon="1.96711">
        <ele>377</ele>
        <time>2007-03-11T08:43:54.000Z</time>
      </trkpt>
      <trkpt lat="44.3421" lon="1.96713">
        <ele>376</ele>
        <time>2007-03-11T08:43:59.000Z</time>
      </trkpt>
      <trkpt lat="44.34256" lon="1.96726">
        <ele>371</ele>
        <time>2007-03-11T08:44:06.000Z</time>
      </trkpt>
      <trkpt lat="44.34272" lon="1.96727">
        <ele>371</ele>
        <time>2007-03-11T08:44:08.000Z</time>
      </trkpt>
      <trkpt lat="44.34306" lon="1.96729">
        <ele>368</ele>
        <time>2007-03-11T08:44:12.000Z</time>
      </trkpt>
      <trkpt lat="44.34349" lon="1.96731">
        <ele>365</ele>
        <time>2007-03-11T08:44:17.000Z</time>
      </trkpt>
      <trkpt lat="44.34391" lon="1.96731">
        <ele>363</ele>
        <time>2007-03-11T08:44:22.000Z</time>
      </trkpt>
      <trkpt lat="44.34489" lon="1.96739">
        <ele>362</ele>
        <time>2007-03-11T08:44:35.000Z</time>
      </trkpt>
      <trkpt lat="44.34499" lon="1.96715">
        <ele>363</ele>
        <time>2007-03-11T08:44:41.000Z</time>
      </trkpt>
      <trkpt lat="44.34471" lon="1.96601">
        <ele>363</ele>
        <time>2007-03-11T08:44:58.000Z</time>
      </trkpt>
      <trkpt lat="44.34433" lon="1.96442">
        <ele>362</ele>
        <time>2007-03-11T08:45:19.000Z</time>
      </trkpt>
      <trkpt lat="44.34388" lon="1.96318">
        <ele>365</ele>
        <time>2007-03-11T08:45:39.000Z</time>
      </trkpt>
      <trkpt lat="44.34371" lon="1.96256">
        <ele>369</ele>
        <time>2007-03-11T08:45:50.000Z</time>
      </trkpt>
      <trkpt lat="44.34348" lon="1.9614">
        <ele>371</ele>
        <time>2007-03-11T08:46:12.000Z</time>
      </trkpt>
      <trkpt lat="44.34341" lon="1.96111">
        <ele>373</ele>
        <time>2007-03-11T08:46:18.000Z</time>
      </trkpt>
      <trkpt lat="44.34331" lon="1.9607">
        <ele>376</ele>
        <time>2007-03-11T08:46:28.000Z</time>
      </trkpt>
      <trkpt lat="44.34318" lon="1.96019">
        <ele>376</ele>
        <time>2007-03-11T08:46:43.000Z</time>
      </trkpt>
      <trkpt lat="44.34312" lon="1.95964">
        <ele>376</ele>
        <time>2007-03-11T08:46:58.000Z</time>
      </trkpt>
      <trkpt lat="44.34357" lon="1.95947">
        <ele>373</ele>
        <time>2007-03-11T08:47:10.000Z</time>
      </trkpt>
      <trkpt lat="44.34379" lon="1.95945">
        <ele>372</ele>
        <time>2007-03-11T08:47:14.000Z</time>
      </trkpt>
      <trkpt lat="44.34444" lon="1.9595">
        <ele>368</ele>
        <time>2007-03-11T08:47:24.000Z</time>
      </trkpt>
      <trkpt lat="44.34504" lon="1.95937">
        <ele>366</ele>
        <time>2007-03-11T08:47:33.000Z</time>
      </trkpt>
      <trkpt lat="44.34524" lon="1.95933">
        <ele>367</ele>
        <time>2007-03-11T08:47:37.000Z</time>
      </trkpt>
      <trkpt lat="44.34579" lon="1.95923">
        <ele>368</ele>
        <time>2007-03-11T08:47:52.000Z</time>
      </trkpt>
      <trkpt lat="44.34617" lon="1.95881">
        <ele>370</ele>
        <time>2007-03-11T08:48:07.000Z</time>
      </trkpt>
      <trkpt lat="44.34639" lon="1.95853">
        <ele>371</ele>
        <time>2007-03-11T08:48:20.000Z</time>
      </trkpt>
      <trkpt lat="44.34667" lon="1.95826">
        <ele>372</ele>
        <time>2007-03-11T08:48:38.000Z</time>
      </trkpt>
      <trkpt lat="44.34719" lon="1.95785">
        <ele>372</ele>
        <time>2007-03-11T08:48:58.000Z</time>
      </trkpt>
      <trkpt lat="44.34791" lon="1.95751">
        <ele>375</ele>
        <time>2007-03-11T08:49:18.000Z</time>
      </trkpt>
      <trkpt lat="44.34825" lon="1.95774">
        <ele>373</ele>
        <time>2007-03-11T08:49:26.000Z</time>
      </trkpt>
      <trkpt lat="44.3486" lon="1.95781">
        <ele>370</ele>
        <time>2007-03-11T08:49:31.000Z</time>
      </trkpt>
      <trkpt lat="44.34893" lon="1.95785">
        <ele>369</ele>
        <time>2007-03-11T08:49:35.000Z</time>
      </trkpt>
      <trkpt lat="44.34943" lon="1.95815">
        <ele>365</ele>
        <time>2007-03-11T08:49:41.000Z</time>
      </trkpt>
      <trkpt lat="44.35029" lon="1.9588">
        <ele>361</ele>
        <time>2007-03-11T08:49:51.000Z</time>
      </trkpt>
      <trkpt lat="44.35113" lon="1.95971">
        <ele>360</ele>
        <time>2007-03-11T08:50:03.000Z</time>
      </trkpt>
      <trkpt lat="44.35186" lon="1.96072">
        <ele>362</ele>
        <time>2007-03-11T08:50:18.000Z</time>
      </trkpt>
      <trkpt lat="44.35213" lon="1.96067">
        <ele>362</ele>
        <time>2007-03-11T08:50:23.000Z</time>
      </trkpt>
      <trkpt lat="44.353" lon="1.95958">
        <ele>364</ele>
        <time>2007-03-11T08:50:45.000Z</time>
      </trkpt>
      <trkpt lat="44.35326" lon="1.95924">
        <ele>367</ele>
        <time>2007-03-11T08:50:55.000Z</time>
      </trkpt>
      <trkpt lat="44.35328" lon="1.95921">
        <ele>367</ele>
        <time>2007-03-11T08:50:56.000Z</time>
      </trkpt>
      <trkpt lat="44.35351" lon="1.9589">
        <ele>370</ele>
        <time>2007-03-11T08:51:09.000Z</time>
      </trkpt>
      <trkpt lat="44.35356" lon="1.95884">
        <ele>372</ele>
        <time>2007-03-11T08:51:12.000Z</time>
      </trkpt>
      <trkpt lat="44.35373" lon="1.95866">
        <ele>375</ele>
        <time>2007-03-11T08:51:23.000Z</time>
      </trkpt>
      <trkpt lat="44.35385" lon="1.95854">
        <ele>378</ele>
        <time>2007-03-11T08:51:31.000Z</time>
      </trkpt>
      <trkpt lat="44.35404" lon="1.95838">
        <ele>381</ele>
        <time>2007-03-11T08:51:43.000Z</time>
      </trkpt>
      <trkpt lat="44.35429" lon="1.95812">
        <ele>385</ele>
        <time>2007-03-11T08:52:00.000Z</time>
      </trkpt>
      <trkpt lat="44.35452" lon="1.95782">
        <ele>388</ele>
        <time>2007-03-11T08:52:18.000Z</time>
      </trkpt>
      <trkpt lat="44.35468" lon="1.95761">
        <ele>391</ele>
        <time>2007-03-11T08:52:30.000Z</time>
      </trkpt>
      <trkpt lat="44.35475" lon="1.95752">
        <ele>392</ele>
        <time>2007-03-11T08:52:35.000Z</time>
      </trkpt>
      <trkpt lat="44.35493" lon="1.9573">
        <ele>395</ele>
        <time>2007-03-11T08:52:48.000Z</time>
      </trkpt>
      <trkpt lat="44.35511" lon="1.95714">
        <ele>398</ele>
        <time>2007-03-11T08:53:00.000Z</time>
      </trkpt>
      <trkpt lat="44.35524" lon="1.95706">
        <ele>401</ele>
        <time>2007-03-11T08:53:08.000Z</time>
      </trkpt>
      <trkpt lat="44.35531" lon="1.95701">
        <ele>401</ele>
        <time>2007-03-11T08:53:12.000Z</time>
      </trkpt>
      <trkpt lat="44.35546" lon="1.95673">
        <ele>398</ele>
        <time>2007-03-11T08:53:21.000Z</time>
      </trkpt>
      <trkpt lat="44.3556" lon="1.95642">
        <ele>393</ele>
        <time>2007-03-11T08:53:26.000Z</time>
      </trkpt>
      <trkpt lat="44.35565" lon="1.95623">
        <ele>392</ele>
        <time>2007-03-11T08:53:28.000Z</time>
      </trkpt>
      <trkpt lat="44.35569" lon="1.95595">
        <ele>390</ele>
        <time>2007-03-11T08:53:30.000Z</time>
      </trkpt>
      <trkpt lat="44.3558" lon="1.95538">
        <ele>386</ele>
        <time>2007-03-11T08:53:34.000Z</time>
      </trkpt>
      <trkpt lat="44.35583" lon="1.95511">
        <ele>384</ele>
        <time>2007-03-11T08:53:36.000Z</time>
      </trkpt>
      <trkpt lat="44.35567" lon="1.95473">
        <ele>385</ele>
        <time>2007-03-11T08:53:41.000Z</time>
      </trkpt>
      <trkpt lat="44.35562" lon="1.9547">
        <ele>384</ele>
        <time>2007-03-11T08:53:42.000Z</time>
      </trkpt>
      <trkpt lat="44.35552" lon="1.95465">
        <ele>385</ele>
        <time>2007-03-11T08:53:44.000Z</time>
      </trkpt>
      <trkpt lat="44.35535" lon="1.95436">
        <ele>385</ele>
        <time>2007-03-11T08:53:51.000Z</time>
      </trkpt>
      <trkpt lat="44.35519" lon="1.95349">
        <ele>386</ele>
        <time>2007-03-11T08:54:09.000Z</time>
      </trkpt>
      <trkpt lat="44.35497" lon="1.9528">
        <ele>384</ele>
        <time>2007-03-11T08:54:20.000Z</time>
      </trkpt>
      <trkpt lat="44.35441" lon="1.9515">
        <ele>387</ele>
        <time>2007-03-11T08:54:52.000Z</time>
      </trkpt>
      <trkpt lat="44.35403" lon="1.95113">
        <ele>387</ele>
        <time>2007-03-11T08:55:12.000Z</time>
      </trkpt>
      <trkpt lat="44.35386" lon="1.95157">
        <ele>387</ele>
        <time>2007-03-11T08:55:23.000Z</time>
      </trkpt>
      <trkpt lat="44.35386" lon="1.95161">
        <ele>387</ele>
        <time>2007-03-11T08:55:24.000Z</time>
      </trkpt>
      <trkpt lat="44.35377" lon="1.95223">
        <ele>388</ele>
        <time>2007-03-11T08:55:39.000Z</time>
      </trkpt>
      <trkpt lat="44.35372" lon="1.95259">
        <ele>391</ele>
        <time>2007-03-11T08:55:49.000Z</time>
      </trkpt>
      <trkpt lat="44.35351" lon="1.95282">
        <ele>392</ele>
        <time>2007-03-11T08:56:02.000Z</time>
      </trkpt>
      <trkpt lat="44.35331" lon="1.95287">
        <ele>395</ele>
        <time>2007-03-11T08:56:14.000Z</time>
      </trkpt>
      <trkpt lat="44.35311" lon="1.95293">
        <ele>399</ele>
        <time>2007-03-11T08:56:26.000Z</time>
      </trkpt>
      <trkpt lat="44.35285" lon="1.95294">
        <ele>401</ele>
        <time>2007-03-11T08:56:44.000Z</time>
      </trkpt>
      <trkpt lat="44.35267" lon="1.95279">
        <ele>405</ele>
        <time>2007-03-11T08:56:58.000Z</time>
      </trkpt>
      <trkpt lat="44.35265" lon="1.95274">
        <ele>407</ele>
        <time>2007-03-11T08:57:01.000Z</time>
      </trkpt>
      <trkpt lat="44.35262" lon="1.95266">
        <ele>408</ele>
        <time>2007-03-11T08:57:05.000Z</time>
      </trkpt>
      <trkpt lat="44.35267" lon="1.95235">
        <ele>411</ele>
        <time>2007-03-11T08:57:21.000Z</time>
      </trkpt>
      <trkpt lat="44.35275" lon="1.95208">
        <ele>414</ele>
        <time>2007-03-11T08:57:35.000Z</time>
      </trkpt>
      <trkpt lat="44.35281" lon="1.95183">
        <ele>415</ele>
        <time>2007-03-11T08:57:48.000Z</time>
      </trkpt>
      <trkpt lat="44.35285" lon="1.9515">
        <ele>418</ele>
        <time>2007-03-11T08:58:03.000Z</time>
      </trkpt>
      <trkpt lat="44.35285" lon="1.95146">
        <ele>418</ele>
        <time>2007-03-11T08:58:05.000Z</time>
      </trkpt>
      <trkpt lat="44.35281" lon="1.95138">
        <ele>419</ele>
        <time>2007-03-11T08:58:09.000Z</time>
      </trkpt>
      <trkpt lat="44.35267" lon="1.95127">
        <ele>420</ele>
        <time>2007-03-11T08:58:20.000Z</time>
      </trkpt>
      <trkpt lat="44.35267" lon="1.9512">
        <ele>420</ele>
        <time>2007-03-11T08:58:40.000Z</time>
      </trkpt>
      <trkpt lat="44.35274" lon="1.95121">
        <ele>420</ele>
        <time>2007-03-11T08:59:07.000Z</time>
      </trkpt>
      <trkpt lat="44.35276" lon="1.95123">
        <ele>420</ele>
        <time>2007-03-11T09:00:11.000Z</time>
      </trkpt>
      <trkpt lat="44.35269" lon="1.95116">
        <ele>420</ele>
        <time>2007-03-11T09:01:01.000Z</time>
      </trkpt>
      <trkpt lat="44.35269" lon="1.95114">
        <ele>421</ele>
        <time>2007-03-11T09:01:12.000Z</time>
      </trkpt>
      <trkpt lat="44.35253" lon="1.9504">
        <ele>419</ele>
        <time>2007-03-11T09:01:31.000Z</time>
      </trkpt>
      <trkpt lat="44.3528" lon="1.9502">
        <ele>421</ele>
        <time>2007-03-11T09:01:42.000Z</time>
      </trkpt>
      <trkpt lat="44.3531" lon="1.94977">
        <ele>423</ele>
        <time>2007-03-11T09:01:56.000Z</time>
      </trkpt>
      <trkpt lat="44.35364" lon="1.94926">
        <ele>425</ele>
        <time>2007-03-11T09:02:15.000Z</time>
      </trkpt>
      <trkpt lat="44.35448" lon="1.94905">
        <ele>425</ele>
        <time>2007-03-11T09:02:36.000Z</time>
      </trkpt>
      <trkpt lat="44.35519" lon="1.94871">
        <ele>423</ele>
        <time>2007-03-11T09:02:52.000Z</time>
      </trkpt>
      <trkpt lat="44.35521" lon="1.94844">
        <ele>422</ele>
        <time>2007-03-11T09:02:57.000Z</time>
      </trkpt>
      <trkpt lat="44.35514" lon="1.94827">
        <ele>422</ele>
        <time>2007-03-11T09:03:00.000Z</time>
      </trkpt>
      <trkpt lat="44.35506" lon="1.94793">
        <ele>421</ele>
        <time>2007-03-11T09:03:05.000Z</time>
      </trkpt>
      <trkpt lat="44.35485" lon="1.94705">
        <ele>419</ele>
        <time>2007-03-11T09:03:17.000Z</time>
      </trkpt>
      <trkpt lat="44.35413" lon="1.94593">
        <ele>417</ele>
        <time>2007-03-11T09:03:35.000Z</time>
      </trkpt>
      <trkpt lat="44.3536" lon="1.94482">
        <ele>415</ele>
        <time>2007-03-11T09:03:49.000Z</time>
      </trkpt>
      <trkpt lat="44.3534" lon="1.94318">
        <ele>415</ele>
        <time>2007-03-11T09:04:07.000Z</time>
      </trkpt>
      <trkpt lat="44.35339" lon="1.94184">
        <ele>414</ele>
        <time>2007-03-11T09:04:22.000Z</time>
      </trkpt>
      <trkpt lat="44.35331" lon="1.94035">
        <ele>414</ele>
        <time>2007-03-11T09:04:38.000Z</time>
      </trkpt>
      <trkpt lat="44.35287" lon="1.93896">
        <ele>410</ele>
        <time>2007-03-11T09:04:55.000Z</time>
      </trkpt>
      <trkpt lat="44.3528" lon="1.93877">
        <ele>409</ele>
        <time>2007-03-11T09:04:57.000Z</time>
      </trkpt>
      <trkpt lat="44.35255" lon="1.93809">
        <ele>407</ele>
        <time>2007-03-11T09:05:04.000Z</time>
      </trkpt>
      <trkpt lat="44.35264" lon="1.93789">
        <ele>405</ele>
        <time>2007-03-11T09:05:07.000Z</time>
      </trkpt>
      <trkpt lat="44.3538" lon="1.93727">
        <ele>402</ele>
        <time>2007-03-11T09:05:24.000Z</time>
      </trkpt>
      <trkpt lat="44.35415" lon="1.93708">
        <ele>400</ele>
        <time>2007-03-11T09:05:29.000Z</time>
      </trkpt>
      <trkpt lat="44.35512" lon="1.93635">
        <ele>398</ele>
        <time>2007-03-11T09:05:44.000Z</time>
      </trkpt>
      <trkpt lat="44.35523" lon="1.93621">
        <ele>398</ele>
        <time>2007-03-11T09:05:46.000Z</time>
      </trkpt>
      <trkpt lat="44.35532" lon="1.93575">
        <ele>397</ele>
        <time>2007-03-11T09:05:51.000Z</time>
      </trkpt>
      <trkpt lat="44.35529" lon="1.93531">
        <ele>398</ele>
        <time>2007-03-11T09:05:56.000Z</time>
      </trkpt>
      <trkpt lat="44.35519" lon="1.93493">
        <ele>399</ele>
        <time>2007-03-11T09:06:01.000Z</time>
      </trkpt>
      <trkpt lat="44.35519" lon="1.93471">
        <ele>400</ele>
        <time>2007-03-11T09:06:04.000Z</time>
      </trkpt>
      <trkpt lat="44.3553" lon="1.93342">
        <ele>401</ele>
        <time>2007-03-11T09:06:22.000Z</time>
      </trkpt>
      <trkpt lat="44.3553" lon="1.93335">
        <ele>401</ele>
        <time>2007-03-11T09:06:23.000Z</time>
      </trkpt>
      <trkpt lat="44.35501" lon="1.93216">
        <ele>401</ele>
        <time>2007-03-11T09:06:41.000Z</time>
      </trkpt>
      <trkpt lat="44.35499" lon="1.93156">
        <ele>402</ele>
        <time>2007-03-11T09:06:56.000Z</time>
      </trkpt>
      <trkpt lat="44.35504" lon="1.93143">
        <ele>402</ele>
        <time>2007-03-11T09:07:08.000Z</time>
      </trkpt>
      <trkpt lat="44.35504" lon="1.93142">
        <ele>403</ele>
        <time>2007-03-11T09:08:48.000Z</time>
      </trkpt>
      <trkpt lat="44.35504" lon="1.93145">
        <ele>402</ele>
        <time>2007-03-11T09:10:36.000Z</time>
      </trkpt>
      <trkpt lat="44.35506" lon="1.93152">
        <ele>403</ele>
        <time>2007-03-11T09:10:40.000Z</time>
      </trkpt>
      <trkpt lat="44.35509" lon="1.93148">
        <ele>403</ele>
        <time>2007-03-11T09:11:03.000Z</time>
      </trkpt>
      <trkpt lat="44.35533" lon="1.9315">
        <ele>402</ele>
        <time>2007-03-11T09:11:16.000Z</time>
      </trkpt>
      <trkpt lat="44.35598" lon="1.93168">
        <ele>399</ele>
        <time>2007-03-11T09:11:27.000Z</time>
      </trkpt>
      <trkpt lat="44.35686" lon="1.93183">
        <ele>396</ele>
        <time>2007-03-11T09:11:39.000Z</time>
      </trkpt>
      <trkpt lat="44.35757" lon="1.93196">
        <ele>393</ele>
        <time>2007-03-11T09:11:49.000Z</time>
      </trkpt>
      <trkpt lat="44.35797" lon="1.93202">
        <ele>392</ele>
        <time>2007-03-11T09:11:55.000Z</time>
      </trkpt>
      <trkpt lat="44.35814" lon="1.93173">
        <ele>393</ele>
        <time>2007-03-11T09:12:00.000Z</time>
      </trkpt>
      <trkpt lat="44.35815" lon="1.9303">
        <ele>393</ele>
        <time>2007-03-11T09:12:19.000Z</time>
      </trkpt>
      <trkpt lat="44.35837" lon="1.92865">
        <ele>396</ele>
        <time>2007-03-11T09:12:39.000Z</time>
      </trkpt>
      <trkpt lat="44.35843" lon="1.92808">
        <ele>399</ele>
        <time>2007-03-11T09:12:48.000Z</time>
      </trkpt>
      <trkpt lat="44.35844" lon="1.92802">
        <ele>399</ele>
        <time>2007-03-11T09:12:49.000Z</time>
      </trkpt>
      <trkpt lat="44.35851" lon="1.92694">
        <ele>401</ele>
        <time>2007-03-11T09:13:05.000Z</time>
      </trkpt>
      <trkpt lat="44.35854" lon="1.92539">
        <ele>398</ele>
        <time>2007-03-11T09:13:25.000Z</time>
      </trkpt>
      <trkpt lat="44.35847" lon="1.92487">
        <ele>395</ele>
        <time>2007-03-11T09:13:30.000Z</time>
      </trkpt>
      <trkpt lat="44.35846" lon="1.92476">
        <ele>395</ele>
        <time>2007-03-11T09:13:31.000Z</time>
      </trkpt>
      <trkpt lat="44.35833" lon="1.92387">
        <ele>391</ele>
        <time>2007-03-11T09:13:39.000Z</time>
      </trkpt>
      <trkpt lat="44.35832" lon="1.92375">
        <ele>392</ele>
        <time>2007-03-11T09:13:40.000Z</time>
      </trkpt>
      <trkpt lat="44.35824" lon="1.9228">
        <ele>389</ele>
        <time>2007-03-11T09:13:48.000Z</time>
      </trkpt>
      <trkpt lat="44.35822" lon="1.92268">
        <ele>388</ele>
        <time>2007-03-11T09:13:49.000Z</time>
      </trkpt>
      <trkpt lat="44.35803" lon="1.92208">
        <ele>385</ele>
        <time>2007-03-11T09:13:54.000Z</time>
      </trkpt>
      <trkpt lat="44.35782" lon="1.92162">
        <ele>383</ele>
        <time>2007-03-11T09:13:58.000Z</time>
      </trkpt>
      <trkpt lat="44.35772" lon="1.92139">
        <ele>380</ele>
        <time>2007-03-11T09:14:00.000Z</time>
      </trkpt>
      <trkpt lat="44.35761" lon="1.9209">
        <ele>379</ele>
        <time>2007-03-11T09:14:04.000Z</time>
      </trkpt>
      <trkpt lat="44.35741" lon="1.91914">
        <ele>380</ele>
        <time>2007-03-11T09:14:20.000Z</time>
      </trkpt>
      <trkpt lat="44.35757" lon="1.91879">
        <ele>381</ele>
        <time>2007-03-11T09:14:25.000Z</time>
      </trkpt>
      <trkpt lat="44.35848" lon="1.9181">
        <ele>382</ele>
        <time>2007-03-11T09:14:44.000Z</time>
      </trkpt>
      <trkpt lat="44.35971" lon="1.9175">
        <ele>383</ele>
        <time>2007-03-11T09:15:04.000Z</time>
      </trkpt>
      <trkpt lat="44.36108" lon="1.91768">
        <ele>382</ele>
        <time>2007-03-11T09:15:24.000Z</time>
      </trkpt>
      <trkpt lat="44.36209" lon="1.9178">
        <ele>378</ele>
        <time>2007-03-11T09:15:37.000Z</time>
      </trkpt>
      <trkpt lat="44.36369" lon="1.91758">
        <ele>376</ele>
        <time>2007-03-11T09:15:57.000Z</time>
      </trkpt>
      <trkpt lat="44.36405" lon="1.91729">
        <ele>373</ele>
        <time>2007-03-11T09:16:02.000Z</time>
      </trkpt>
      <trkpt lat="44.36492" lon="1.91651">
        <ele>371</ele>
        <time>2007-03-11T09:16:15.000Z</time>
      </trkpt>
      <trkpt lat="44.36502" lon="1.91643">
        <ele>373</ele>
        <time>2007-03-11T09:16:17.000Z</time>
      </trkpt>
      <trkpt lat="44.36512" lon="1.9163">
        <ele>374</ele>
        <time>2007-03-11T09:16:21.000Z</time>
      </trkpt>
      <trkpt lat="44.36522" lon="1.91601">
        <ele>377</ele>
        <time>2007-03-11T09:16:33.000Z</time>
      </trkpt>
      <trkpt lat="44.36526" lon="1.91591">
        <ele>379</ele>
        <time>2007-03-11T09:16:38.000Z</time>
      </trkpt>
      <trkpt lat="44.36531" lon="1.9158">
        <ele>382</ele>
        <time>2007-03-11T09:16:44.000Z</time>
      </trkpt>
      <trkpt lat="44.36538" lon="1.91568">
        <ele>385</ele>
        <time>2007-03-11T09:16:52.000Z</time>
      </trkpt>
      <trkpt lat="44.36541" lon="1.91565">
        <ele>386</ele>
        <time>2007-03-11T09:16:54.000Z</time>
      </trkpt>
      <trkpt lat="44.36546" lon="1.91558">
        <ele>388</ele>
        <time>2007-03-11T09:16:59.000Z</time>
      </trkpt>
      <trkpt lat="44.36568" lon="1.91541">
        <ele>391</ele>
        <time>2007-03-11T09:17:16.000Z</time>
      </trkpt>
      <trkpt lat="44.36581" lon="1.91534">
        <ele>394</ele>
        <time>2007-03-11T09:17:25.000Z</time>
      </trkpt>
      <trkpt lat="44.36584" lon="1.91532">
        <ele>394</ele>
        <time>2007-03-11T09:17:27.000Z</time>
      </trkpt>
      <trkpt lat="44.36601" lon="1.91522">
        <ele>395</ele>
        <time>2007-03-11T09:17:39.000Z</time>
      </trkpt>
      <trkpt lat="44.3664" lon="1.91507">
        <ele>395</ele>
        <time>2007-03-11T09:17:59.000Z</time>
      </trkpt>
      <trkpt lat="44.36703" lon="1.91491">
        <ele>393</ele>
        <time>2007-03-11T09:18:15.000Z</time>
      </trkpt>
      <trkpt lat="44.36758" lon="1.91458">
        <ele>393</ele>
        <time>2007-03-11T09:18:27.000Z</time>
      </trkpt>
      <trkpt lat="44.36772" lon="1.91464">
        <ele>392</ele>
        <time>2007-03-11T09:18:30.000Z</time>
      </trkpt>
      <trkpt lat="44.36787" lon="1.91474">
        <ele>392</ele>
        <time>2007-03-11T09:18:33.000Z</time>
      </trkpt>
      <trkpt lat="44.36803" lon="1.91473">
        <ele>391</ele>
        <time>2007-03-11T09:18:37.000Z</time>
      </trkpt>
      <trkpt lat="44.36836" lon="1.91435">
        <ele>388</ele>
        <time>2007-03-11T09:18:45.000Z</time>
      </trkpt>
      <trkpt lat="44.36866" lon="1.914">
        <ele>387</ele>
        <time>2007-03-11T09:18:51.000Z</time>
      </trkpt>
      <trkpt lat="44.36896" lon="1.9137">
        <ele>384</ele>
        <time>2007-03-11T09:18:56.000Z</time>
      </trkpt>
      <trkpt lat="44.36901" lon="1.91364">
        <ele>384</ele>
        <time>2007-03-11T09:18:57.000Z</time>
      </trkpt>
      <trkpt lat="44.36917" lon="1.91343">
        <ele>384</ele>
        <time>2007-03-11T09:19:00.000Z</time>
      </trkpt>
      <trkpt lat="44.36936" lon="1.91326">
        <ele>382</ele>
        <time>2007-03-11T09:19:03.000Z</time>
      </trkpt>
      <trkpt lat="44.36959" lon="1.91286">
        <ele>382</ele>
        <time>2007-03-11T09:19:08.000Z</time>
      </trkpt>
      <trkpt lat="44.36963" lon="1.91269">
        <ele>382</ele>
        <time>2007-03-11T09:19:10.000Z</time>
      </trkpt>
      <trkpt lat="44.36967" lon="1.91235">
        <ele>382</ele>
        <time>2007-03-11T09:19:14.000Z</time>
      </trkpt>
      <trkpt lat="44.36963" lon="1.91199">
        <ele>380</ele>
        <time>2007-03-11T09:19:18.000Z</time>
      </trkpt>
      <trkpt lat="44.36953" lon="1.91161">
        <ele>379</ele>
        <time>2007-03-11T09:19:22.000Z</time>
      </trkpt>
      <trkpt lat="44.36977" lon="1.91136">
        <ele>380</ele>
        <time>2007-03-11T09:19:29.000Z</time>
      </trkpt>
      <trkpt lat="44.36998" lon="1.91142">
        <ele>380</ele>
        <time>2007-03-11T09:19:33.000Z</time>
      </trkpt>
      <trkpt lat="44.37031" lon="1.91161">
        <ele>380</ele>
        <time>2007-03-11T09:19:40.000Z</time>
      </trkpt>
      <trkpt lat="44.37069" lon="1.91199">
        <ele>384</ele>
        <time>2007-03-11T09:19:55.000Z</time>
      </trkpt>
      <trkpt lat="44.37092" lon="1.91213">
        <ele>387</ele>
        <time>2007-03-11T09:20:06.000Z</time>
      </trkpt>
      <trkpt lat="44.37102" lon="1.91225">
        <ele>389</ele>
        <time>2007-03-11T09:20:13.000Z</time>
      </trkpt>
      <trkpt lat="44.37121" lon="1.91242">
        <ele>392</ele>
        <time>2007-03-11T09:20:26.000Z</time>
      </trkpt>
      <trkpt lat="44.37146" lon="1.91284">
        <ele>396</ele>
        <time>2007-03-11T09:20:48.000Z</time>
      </trkpt>
      <trkpt lat="44.37153" lon="1.91292">
        <ele>398</ele>
        <time>2007-03-11T09:20:53.000Z</time>
      </trkpt>
      <trkpt lat="44.37164" lon="1.91309">
        <ele>401</ele>
        <time>2007-03-11T09:21:04.000Z</time>
      </trkpt>
      <trkpt lat="44.37171" lon="1.91318">
        <ele>401</ele>
        <time>2007-03-11T09:21:09.000Z</time>
      </trkpt>
      <trkpt lat="44.37187" lon="1.91373">
        <ele>398</ele>
        <time>2007-03-11T09:21:23.000Z</time>
      </trkpt>
      <trkpt lat="44.37199" lon="1.9139">
        <ele>392</ele>
        <time>2007-03-11T09:21:26.000Z</time>
      </trkpt>
      <trkpt lat="44.37231" lon="1.91408">
        <ele>387</ele>
        <time>2007-03-11T09:21:30.000Z</time>
      </trkpt>
      <trkpt lat="44.3724" lon="1.91414">
        <ele>387</ele>
        <time>2007-03-11T09:21:31.000Z</time>
      </trkpt>
      <trkpt lat="44.37312" lon="1.91479">
        <ele>385</ele>
        <time>2007-03-11T09:21:42.000Z</time>
      </trkpt>
      <trkpt lat="44.3733" lon="1.91505">
        <ele>382</ele>
        <time>2007-03-11T09:21:46.000Z</time>
      </trkpt>
      <trkpt lat="44.37339" lon="1.9154">
        <ele>380</ele>
        <time>2007-03-11T09:21:50.000Z</time>
      </trkpt>
      <trkpt lat="44.37344" lon="1.91572">
        <ele>379</ele>
        <time>2007-03-11T09:21:53.000Z</time>
      </trkpt>
      <trkpt lat="44.37346" lon="1.91583">
        <ele>377</ele>
        <time>2007-03-11T09:21:54.000Z</time>
      </trkpt>
      <trkpt lat="44.37362" lon="1.9161">
        <ele>375</ele>
        <time>2007-03-11T09:21:57.000Z</time>
      </trkpt>
      <trkpt lat="44.37391" lon="1.91654">
        <ele>371</ele>
        <time>2007-03-11T09:22:02.000Z</time>
      </trkpt>
      <trkpt lat="44.37399" lon="1.91663">
        <ele>370</ele>
        <time>2007-03-11T09:22:03.000Z</time>
      </trkpt>
      <trkpt lat="44.37424" lon="1.91684">
        <ele>366</ele>
        <time>2007-03-11T09:22:06.000Z</time>
      </trkpt>
      <trkpt lat="44.3744" lon="1.91723">
        <ele>366</ele>
        <time>2007-03-11T09:22:10.000Z</time>
      </trkpt>
      <trkpt lat="44.37481" lon="1.91798">
        <ele>366</ele>
        <time>2007-03-11T09:22:21.000Z</time>
      </trkpt>
      <trkpt lat="44.37506" lon="1.91841">
        <ele>368</ele>
        <time>2007-03-11T09:22:30.000Z</time>
      </trkpt>
      <trkpt lat="44.37519" lon="1.91862">
        <ele>368</ele>
        <time>2007-03-11T09:22:35.000Z</time>
      </trkpt>
      <trkpt lat="44.37574" lon="1.91913">
        <ele>371</ele>
        <time>2007-03-11T09:22:52.000Z</time>
      </trkpt>
      <trkpt lat="44.37612" lon="1.91944">
        <ele>371</ele>
        <time>2007-03-11T09:23:05.000Z</time>
      </trkpt>
      <trkpt lat="44.37629" lon="1.91922">
        <ele>369</ele>
        <time>2007-03-11T09:23:10.000Z</time>
      </trkpt>
      <trkpt lat="44.37648" lon="1.91806">
        <ele>365</ele>
        <time>2007-03-11T09:23:23.000Z</time>
      </trkpt>
      <trkpt lat="44.37675" lon="1.9176">
        <ele>366</ele>
        <time>2007-03-11T09:23:34.000Z</time>
      </trkpt>
      <trkpt lat="44.37707" lon="1.91708">
        <ele>367</ele>
        <time>2007-03-11T09:23:51.000Z</time>
      </trkpt>
      <trkpt lat="44.3775" lon="1.91671">
        <ele>368</ele>
        <time>2007-03-11T09:24:10.000Z</time>
      </trkpt>
      <trkpt lat="44.37809" lon="1.91661">
        <ele>367</ele>
        <time>2007-03-11T09:24:31.000Z</time>
      </trkpt>
      <trkpt lat="44.37822" lon="1.91659">
        <ele>367</ele>
        <time>2007-03-11T09:24:35.000Z</time>
      </trkpt>
      <trkpt lat="44.37832" lon="1.91647">
        <ele>369</ele>
        <time>2007-03-11T09:24:39.000Z</time>
      </trkpt>
      <trkpt lat="44.37848" lon="1.91597">
        <ele>373</ele>
        <time>2007-03-11T09:24:52.000Z</time>
      </trkpt>
      <trkpt lat="44.37857" lon="1.91506">
        <ele>375</ele>
        <time>2007-03-11T09:25:11.000Z</time>
      </trkpt>
      <trkpt lat="44.37878" lon="1.91428">
        <ele>377</ele>
        <time>2007-03-11T09:25:28.000Z</time>
      </trkpt>
      <trkpt lat="44.37904" lon="1.91362">
        <ele>374</ele>
        <time>2007-03-11T09:25:41.000Z</time>
      </trkpt>
      <trkpt lat="44.37914" lon="1.91336">
        <ele>371</ele>
        <time>2007-03-11T09:25:45.000Z</time>
      </trkpt>
      <trkpt lat="44.37952" lon="1.91217">
        <ele>372</ele>
        <time>2007-03-11T09:26:02.000Z</time>
      </trkpt>
      <trkpt lat="44.37972" lon="1.91173">
        <ele>372</ele>
        <time>2007-03-11T09:26:10.000Z</time>
      </trkpt>
      <trkpt lat="44.38027" lon="1.91105">
        <ele>375</ele>
        <time>2007-03-11T09:26:28.000Z</time>
      </trkpt>
      <trkpt lat="44.38103" lon="1.91014">
        <ele>373</ele>
        <time>2007-03-11T09:26:51.000Z</time>
      </trkpt>
      <trkpt lat="44.38158" lon="1.9096">
        <ele>376</ele>
        <time>2007-03-11T09:27:07.000Z</time>
      </trkpt>
      <trkpt lat="44.38188" lon="1.90924">
        <ele>379</ele>
        <time>2007-03-11T09:27:18.000Z</time>
      </trkpt>
      <trkpt lat="44.3819" lon="1.90921">
        <ele>379</ele>
        <time>2007-03-11T09:27:19.000Z</time>
      </trkpt>
      <trkpt lat="44.38215" lon="1.90862">
        <ele>379</ele>
        <time>2007-03-11T09:27:37.000Z</time>
      </trkpt>
      <trkpt lat="44.38237" lon="1.90814">
        <ele>376</ele>
        <time>2007-03-11T09:27:46.000Z</time>
      </trkpt>
      <trkpt lat="44.38246" lon="1.90797">
        <ele>375</ele>
        <time>2007-03-11T09:27:49.000Z</time>
      </trkpt>
      <trkpt lat="44.38257" lon="1.90769">
        <ele>373</ele>
        <time>2007-03-11T09:27:53.000Z</time>
      </trkpt>
      <trkpt lat="44.38265" lon="1.90746">
        <ele>373</ele>
        <time>2007-03-11T09:27:56.000Z</time>
      </trkpt>
      <trkpt lat="44.38271" lon="1.90733">
        <ele>372</ele>
        <time>2007-03-11T09:27:58.000Z</time>
      </trkpt>
      <trkpt lat="44.383" lon="1.9065">
        <ele>375</ele>
        <time>2007-03-11T09:28:12.000Z</time>
      </trkpt>
      <trkpt lat="44.38321" lon="1.90548">
        <ele>377</ele>
        <time>2007-03-11T09:28:30.000Z</time>
      </trkpt>
      <trkpt lat="44.38328" lon="1.9042">
        <ele>376</ele>
        <time>2007-03-11T09:28:51.000Z</time>
      </trkpt>
      <trkpt lat="44.38337" lon="1.90393">
        <ele>376</ele>
        <time>2007-03-11T09:28:55.000Z</time>
      </trkpt>
      <trkpt lat="44.38623" lon="1.90076">
        <ele>378</ele>
        <time>2007-03-11T09:30:06.000Z</time>
      </trkpt>
      <trkpt lat="44.38677" lon="1.90121">
        <ele>376</ele>
        <time>2007-03-11T09:30:18.000Z</time>
      </trkpt>
      <trkpt lat="44.38697" lon="1.90138">
        <ele>374</ele>
        <time>2007-03-11T09:30:21.000Z</time>
      </trkpt>
      <trkpt lat="44.38767" lon="1.90203">
        <ele>376</ele>
        <time>2007-03-11T09:30:35.000Z</time>
      </trkpt>
      <trkpt lat="44.38772" lon="1.90207">
        <ele>376</ele>
        <time>2007-03-11T09:30:36.000Z</time>
      </trkpt>
      <trkpt lat="44.38796" lon="1.90227">
        <ele>379</ele>
        <time>2007-03-11T09:30:42.000Z</time>
      </trkpt>
      <trkpt lat="44.3885" lon="1.90292">
        <ele>375</ele>
        <time>2007-03-11T09:30:56.000Z</time>
      </trkpt>
      <trkpt lat="44.38874" lon="1.90311">
        <ele>370</ele>
        <time>2007-03-11T09:30:59.000Z</time>
      </trkpt>
      <trkpt lat="44.38884" lon="1.90319">
        <ele>370</ele>
        <time>2007-03-11T09:31:00.000Z</time>
      </trkpt>
      <trkpt lat="44.38932" lon="1.90357">
        <ele>366</ele>
        <time>2007-03-11T09:31:05.000Z</time>
      </trkpt>
      <trkpt lat="44.38949" lon="1.90372">
        <ele>365</ele>
        <time>2007-03-11T09:31:07.000Z</time>
      </trkpt>
      <trkpt lat="44.39016" lon="1.90424">
        <ele>364</ele>
        <time>2007-03-11T09:31:17.000Z</time>
      </trkpt>
      <trkpt lat="44.39093" lon="1.90501">
        <ele>362</ele>
        <time>2007-03-11T09:31:31.000Z</time>
      </trkpt>
      <trkpt lat="44.39151" lon="1.90595">
        <ele>363</ele>
        <time>2007-03-11T09:31:47.000Z</time>
      </trkpt>
      <trkpt lat="44.39197" lon="1.90688">
        <ele>359</ele>
        <time>2007-03-11T09:32:03.000Z</time>
      </trkpt>
      <trkpt lat="44.39218" lon="1.90729">
        <ele>357</ele>
        <time>2007-03-11T09:32:08.000Z</time>
      </trkpt>
      <trkpt lat="44.39237" lon="1.90764">
        <ele>355</ele>
        <time>2007-03-11T09:32:12.000Z</time>
      </trkpt>
      <trkpt lat="44.39282" lon="1.90854">
        <ele>356</ele>
        <time>2007-03-11T09:32:25.000Z</time>
      </trkpt>
      <trkpt lat="44.39288" lon="1.90861">
        <ele>356</ele>
        <time>2007-03-11T09:32:27.000Z</time>
      </trkpt>
      <trkpt lat="44.39404" lon="1.90825">
        <ele>363</ele>
        <time>2007-03-11T09:33:08.000Z</time>
      </trkpt>
      <trkpt lat="44.39434" lon="1.90768">
        <ele>366</ele>
        <time>2007-03-11T09:33:24.000Z</time>
      </trkpt>
      <trkpt lat="44.39476" lon="1.90712">
        <ele>370</ele>
        <time>2007-03-11T09:33:45.000Z</time>
      </trkpt>
      <trkpt lat="44.39526" lon="1.9065">
        <ele>368</ele>
        <time>2007-03-11T09:34:03.000Z</time>
      </trkpt>
      <trkpt lat="44.39569" lon="1.90593">
        <ele>366</ele>
        <time>2007-03-11T09:34:16.000Z</time>
      </trkpt>
      <trkpt lat="44.39657" lon="1.90507">
        <ele>363</ele>
        <time>2007-03-11T09:34:36.000Z</time>
      </trkpt>
      <trkpt lat="44.39846" lon="1.9039">
        <ele>357</ele>
        <time>2007-03-11T09:35:13.000Z</time>
      </trkpt>
      <trkpt lat="44.39851" lon="1.90387">
        <ele>357</ele>
        <time>2007-03-11T09:35:14.000Z</time>
      </trkpt>
      <trkpt lat="44.39917" lon="1.90348">
        <ele>353</ele>
        <time>2007-03-11T09:35:25.000Z</time>
      </trkpt>
      <trkpt lat="44.39943" lon="1.90335">
        <ele>351</ele>
        <time>2007-03-11T09:35:29.000Z</time>
      </trkpt>
      <trkpt lat="44.3995" lon="1.90331">
        <ele>351</ele>
        <time>2007-03-11T09:35:30.000Z</time>
      </trkpt>
      <trkpt lat="44.39993" lon="1.90309">
        <ele>347</ele>
        <time>2007-03-11T09:35:36.000Z</time>
      </trkpt>
      <trkpt lat="44.4" lon="1.90305">
        <ele>347</ele>
        <time>2007-03-11T09:35:37.000Z</time>
      </trkpt>
      <trkpt lat="44.40041" lon="1.90285">
        <ele>345</ele>
        <time>2007-03-11T09:35:43.000Z</time>
      </trkpt>
      <trkpt lat="44.40117" lon="1.90226">
        <ele>346</ele>
        <time>2007-03-11T09:35:58.000Z</time>
      </trkpt>
      <trkpt lat="44.40125" lon="1.90222">
        <ele>348</ele>
        <time>2007-03-11T09:36:00.000Z</time>
      </trkpt>
      <trkpt lat="44.40133" lon="1.90235">
        <ele>349</ele>
        <time>2007-03-11T09:36:06.000Z</time>
      </trkpt>
      <trkpt lat="44.40152" lon="1.90279">
        <ele>351</ele>
        <time>2007-03-11T09:36:21.000Z</time>
      </trkpt>
      <trkpt lat="44.40176" lon="1.90345">
        <ele>351</ele>
        <time>2007-03-11T09:36:42.000Z</time>
      </trkpt>
      <trkpt lat="44.40191" lon="1.90421">
        <ele>354</ele>
        <time>2007-03-11T09:36:59.000Z</time>
      </trkpt>
      <trkpt lat="44.40209" lon="1.90533">
        <ele>355</ele>
        <time>2007-03-11T09:37:20.000Z</time>
      </trkpt>
      <trkpt lat="44.40221" lon="1.9062">
        <ele>356</ele>
        <time>2007-03-11T09:37:36.000Z</time>
      </trkpt>
      <trkpt lat="44.40229" lon="1.9066">
        <ele>356</ele>
        <time>2007-03-11T09:37:43.000Z</time>
      </trkpt>
      <trkpt lat="44.40256" lon="1.90703">
        <ele>356</ele>
        <time>2007-03-11T09:37:51.000Z</time>
      </trkpt>
      <trkpt lat="44.40324" lon="1.90764">
        <ele>357</ele>
        <time>2007-03-11T09:38:07.000Z</time>
      </trkpt>
      <trkpt lat="44.40362" lon="1.90754">
        <ele>355</ele>
        <time>2007-03-11T09:38:14.000Z</time>
      </trkpt>
      <trkpt lat="44.40367" lon="1.90747">
        <ele>354</ele>
        <time>2007-03-11T09:38:15.000Z</time>
      </trkpt>
      <trkpt lat="44.40407" lon="1.90698">
        <ele>351</ele>
        <time>2007-03-11T09:38:22.000Z</time>
      </trkpt>
      <trkpt lat="44.40427" lon="1.90668">
        <ele>352</ele>
        <time>2007-03-11T09:38:26.000Z</time>
      </trkpt>
      <trkpt lat="44.40435" lon="1.90657">
        <ele>352</ele>
        <time>2007-03-11T09:38:28.000Z</time>
      </trkpt>
      <trkpt lat="44.40507" lon="1.90565">
        <ele>349</ele>
        <time>2007-03-11T09:38:42.000Z</time>
      </trkpt>
      <trkpt lat="44.40553" lon="1.90514">
        <ele>345</ele>
        <time>2007-03-11T09:38:49.000Z</time>
      </trkpt>
      <trkpt lat="44.40609" lon="1.90453">
        <ele>341</ele>
        <time>2007-03-11T09:38:57.000Z</time>
      </trkpt>
      <trkpt lat="44.40616" lon="1.90446">
        <ele>341</ele>
        <time>2007-03-11T09:38:58.000Z</time>
      </trkpt>
      <trkpt lat="44.40681" lon="1.90383">
        <ele>338</ele>
        <time>2007-03-11T09:39:07.000Z</time>
      </trkpt>
      <trkpt lat="44.40788" lon="1.90297">
        <ele>336</ele>
        <time>2007-03-11T09:39:22.000Z</time>
      </trkpt>
      <trkpt lat="44.40814" lon="1.90293">
        <ele>334</ele>
        <time>2007-03-11T09:39:26.000Z</time>
      </trkpt>
      <trkpt lat="44.40843" lon="1.90323">
        <ele>337</ele>
        <time>2007-03-11T09:39:37.000Z</time>
      </trkpt>
      <trkpt lat="44.40858" lon="1.90348">
        <ele>339</ele>
        <time>2007-03-11T09:39:51.000Z</time>
      </trkpt>
      <trkpt lat="44.40861" lon="1.90352">
        <ele>341</ele>
        <time>2007-03-11T09:39:53.000Z</time>
      </trkpt>
      <trkpt lat="44.40869" lon="1.90365">
        <ele>343</ele>
        <time>2007-03-11T09:39:59.000Z</time>
      </trkpt>
      <trkpt lat="44.40884" lon="1.90388">
        <ele>347</ele>
        <time>2007-03-11T09:40:10.000Z</time>
      </trkpt>
      <trkpt lat="44.40885" lon="1.90396">
        <ele>348</ele>
        <time>2007-03-11T09:40:21.000Z</time>
      </trkpt>
      <trkpt lat="44.40883" lon="1.90397">
        <ele>348</ele>
        <time>2007-03-11T09:40:25.000Z</time>
      </trkpt>
      <trkpt lat="44.40864" lon="1.90431">
        <ele>350</ele>
        <time>2007-03-11T09:40:37.000Z</time>
      </trkpt>
      <trkpt lat="44.40837" lon="1.9047">
        <ele>350</ele>
        <time>2007-03-11T09:40:49.000Z</time>
      </trkpt>
      <trkpt lat="44.40822" lon="1.90487">
        <ele>349</ele>
        <time>2007-03-11T09:40:54.000Z</time>
      </trkpt>
      <trkpt lat="44.4082" lon="1.90504">
        <ele>349</ele>
        <time>2007-03-11T09:40:57.000Z</time>
      </trkpt>
      <trkpt lat="44.40814" lon="1.90512">
        <ele>350</ele>
        <time>2007-03-11T09:40:59.000Z</time>
      </trkpt>
      <trkpt lat="44.40811" lon="1.90534">
        <ele>349</ele>
        <time>2007-03-11T09:41:03.000Z</time>
      </trkpt>
      <trkpt lat="44.40792" lon="1.90602">
        <ele>349</ele>
        <time>2007-03-11T09:41:17.000Z</time>
      </trkpt>
      <trkpt lat="44.40801" lon="1.90619">
        <ele>349</ele>
        <time>2007-03-11T09:41:27.000Z</time>
      </trkpt>
      <trkpt lat="44.4082" lon="1.90625">
        <ele>348</ele>
        <time>2007-03-11T09:41:41.000Z</time>
      </trkpt>
      <trkpt lat="44.40861" lon="1.90556">
        <ele>349</ele>
        <time>2007-03-11T09:42:01.000Z</time>
      </trkpt>
      <trkpt lat="44.40922" lon="1.90452">
        <ele>347</ele>
        <time>2007-03-11T09:42:24.000Z</time>
      </trkpt>
      <trkpt lat="44.40928" lon="1.90454">
        <ele>347</ele>
        <time>2007-03-11T09:42:26.000Z</time>
      </trkpt>
      <trkpt lat="44.40959" lon="1.90495">
        <ele>347</ele>
        <time>2007-03-11T09:42:36.000Z</time>
      </trkpt>
      <trkpt lat="44.40968" lon="1.90503">
        <ele>347</ele>
        <time>2007-03-11T09:42:42.000Z</time>
      </trkpt>
      <trkpt lat="44.40973" lon="1.90505">
        <ele>347</ele>
        <time>2007-03-11T09:42:55.000Z</time>
      </trkpt>
      <trkpt lat="44.40975" lon="1.90504">
        <ele>346</ele>
        <time>2007-03-11T09:46:40.000Z</time>
      </trkpt>
      <trkpt lat="44.40968" lon="1.90498">
        <ele>346</ele>
        <time>2007-03-11T09:46:56.000Z</time>
      </trkpt>
      <trkpt lat="44.40967" lon="1.90493">
        <ele>346</ele>
        <time>2007-03-11T09:47:17.000Z</time>
      </trkpt>
      <trkpt lat="44.40972" lon="1.9048">
        <ele>346</ele>
        <time>2007-03-11T09:47:23.000Z</time>
      </trkpt>
      <trkpt lat="44.40997" lon="1.90425">
        <ele>344</ele>
        <time>2007-03-11T09:47:36.000Z</time>
      </trkpt>
      <trkpt lat="44.41028" lon="1.90352">
        <ele>346</ele>
        <time>2007-03-11T09:47:54.000Z</time>
      </trkpt>
      <trkpt lat="44.41085" lon="1.90237">
        <ele>349</ele>
        <time>2007-03-11T09:48:21.000Z</time>
      </trkpt>
      <trkpt lat="44.41139" lon="1.90114">
        <ele>352</ele>
        <time>2007-03-11T09:48:48.000Z</time>
      </trkpt>
      <trkpt lat="44.41197" lon="1.90031">
        <ele>354</ele>
        <time>2007-03-11T09:49:11.000Z</time>
      </trkpt>
      <trkpt lat="44.41207" lon="1.90017">
        <ele>356</ele>
        <time>2007-03-11T09:49:15.000Z</time>
      </trkpt>
      <trkpt lat="44.41228" lon="1.89989">
        <ele>359</ele>
        <time>2007-03-11T09:49:24.000Z</time>
      </trkpt>
      <trkpt lat="44.41234" lon="1.89978">
        <ele>359</ele>
        <time>2007-03-11T09:49:35.000Z</time>
      </trkpt>
      <trkpt lat="44.41234" lon="1.89981">
        <ele>356</ele>
        <time>2007-03-11T09:53:29.000Z</time>
      </trkpt>
      <trkpt lat="44.41232" lon="1.89981">
        <ele>359</ele>
        <time>2007-03-11T09:57:12.000Z</time>
      </trkpt>
      <trkpt lat="44.41232" lon="1.89982">
        <ele>359</ele>
        <time>2007-03-11T09:58:17.000Z</time>
      </trkpt>
      <trkpt lat="44.41234" lon="1.89978">
        <ele>359</ele>
        <time>2007-03-11T10:00:15.000Z</time>
      </trkpt>
      <trkpt lat="44.4125" lon="1.89954">
        <ele>361</ele>
        <time>2007-03-11T10:00:54.000Z</time>
      </trkpt>
      <trkpt lat="44.41284" lon="1.89907">
        <ele>363</ele>
        <time>2007-03-11T10:01:12.000Z</time>
      </trkpt>
      <trkpt lat="44.41344" lon="1.89848">
        <ele>361</ele>
        <time>2007-03-11T10:01:31.000Z</time>
      </trkpt>
      <trkpt lat="44.41374" lon="1.89825">
        <ele>358</ele>
        <time>2007-03-11T10:01:37.000Z</time>
      </trkpt>
      <trkpt lat="44.41387" lon="1.89815">
        <ele>357</ele>
        <time>2007-03-11T10:01:39.000Z</time>
      </trkpt>
      <trkpt lat="44.41432" lon="1.89781">
        <ele>354</ele>
        <time>2007-03-11T10:01:46.000Z</time>
      </trkpt>
      <trkpt lat="44.41457" lon="1.89757">
        <ele>351</ele>
        <time>2007-03-11T10:01:50.000Z</time>
      </trkpt>
      <trkpt lat="44.41513" lon="1.8969">
        <ele>349</ele>
        <time>2007-03-11T10:02:00.000Z</time>
      </trkpt>
      <trkpt lat="44.41518" lon="1.89683">
        <ele>349</ele>
        <time>2007-03-11T10:02:01.000Z</time>
      </trkpt>
      <trkpt lat="44.41598" lon="1.89576">
        <ele>351</ele>
        <time>2007-03-11T10:02:18.000Z</time>
      </trkpt>
      <trkpt lat="44.41651" lon="1.89524">
        <ele>355</ele>
        <time>2007-03-11T10:02:36.000Z</time>
      </trkpt>
      <trkpt lat="44.41679" lon="1.895">
        <ele>358</ele>
        <time>2007-03-11T10:02:50.000Z</time>
      </trkpt>
      <trkpt lat="44.41705" lon="1.89478">
        <ele>362</ele>
        <time>2007-03-11T10:03:06.000Z</time>
      </trkpt>
      <trkpt lat="44.41726" lon="1.8946">
        <ele>365</ele>
        <time>2007-03-11T10:03:19.000Z</time>
      </trkpt>
      <trkpt lat="44.41739" lon="1.89451">
        <ele>368</ele>
        <time>2007-03-11T10:03:28.000Z</time>
      </trkpt>
      <trkpt lat="44.41762" lon="1.89428">
        <ele>371</ele>
        <time>2007-03-11T10:03:44.000Z</time>
      </trkpt>
      <trkpt lat="44.4179" lon="1.89389">
        <ele>374</ele>
        <time>2007-03-11T10:04:06.000Z</time>
      </trkpt>
      <trkpt lat="44.41831" lon="1.89344">
        <ele>376</ele>
        <time>2007-03-11T10:04:28.000Z</time>
      </trkpt>
      <trkpt lat="44.41883" lon="1.89308">
        <ele>376</ele>
        <time>2007-03-11T10:04:48.000Z</time>
      </trkpt>
      <trkpt lat="44.41933" lon="1.89291">
        <ele>372</ele>
        <time>2007-03-11T10:05:00.000Z</time>
      </trkpt>
      <trkpt lat="44.41949" lon="1.89288">
        <ele>371</ele>
        <time>2007-03-11T10:05:02.000Z</time>
      </trkpt>
      <trkpt lat="44.41982" lon="1.89285">
        <ele>368</ele>
        <time>2007-03-11T10:05:06.000Z</time>
      </trkpt>
      <trkpt lat="44.41992" lon="1.89284">
        <ele>367</ele>
        <time>2007-03-11T10:05:07.000Z</time>
      </trkpt>
      <trkpt lat="44.42029" lon="1.8928">
        <ele>364</ele>
        <time>2007-03-11T10:05:11.000Z</time>
      </trkpt>
      <trkpt lat="44.42047" lon="1.89277">
        <ele>361</ele>
        <time>2007-03-11T10:05:13.000Z</time>
      </trkpt>
      <trkpt lat="44.42093" lon="1.89267">
        <ele>360</ele>
        <time>2007-03-11T10:05:18.000Z</time>
      </trkpt>
      <trkpt lat="44.42174" lon="1.89232">
        <ele>360</ele>
        <time>2007-03-11T10:05:30.000Z</time>
      </trkpt>
      <trkpt lat="44.42237" lon="1.89198">
        <ele>363</ele>
        <time>2007-03-11T10:05:44.000Z</time>
      </trkpt>
      <trkpt lat="44.4227" lon="1.8918">
        <ele>366</ele>
        <time>2007-03-11T10:05:56.000Z</time>
      </trkpt>
      <trkpt lat="44.42303" lon="1.89159">
        <ele>369</ele>
        <time>2007-03-11T10:06:10.000Z</time>
      </trkpt>
      <trkpt lat="44.42322" lon="1.89149">
        <ele>372</ele>
        <time>2007-03-11T10:06:19.000Z</time>
      </trkpt>
      <trkpt lat="44.42349" lon="1.89136">
        <ele>375</ele>
        <time>2007-03-11T10:06:34.000Z</time>
      </trkpt>
      <trkpt lat="44.42375" lon="1.89124">
        <ele>378</ele>
        <time>2007-03-11T10:06:49.000Z</time>
      </trkpt>
      <trkpt lat="44.4241" lon="1.89114">
        <ele>381</ele>
        <time>2007-03-11T10:07:07.000Z</time>
      </trkpt>
      <trkpt lat="44.42439" lon="1.89107">
        <ele>384</ele>
        <time>2007-03-11T10:07:22.000Z</time>
      </trkpt>
      <trkpt lat="44.42486" lon="1.891">
        <ele>388</ele>
        <time>2007-03-11T10:07:41.000Z</time>
      </trkpt>
      <trkpt lat="44.42562" lon="1.89083">
        <ele>389</ele>
        <time>2007-03-11T10:08:05.000Z</time>
      </trkpt>
      <trkpt lat="44.42639" lon="1.89057">
        <ele>390</ele>
        <time>2007-03-11T10:08:24.000Z</time>
      </trkpt>
      <trkpt lat="44.42663" lon="1.89074">
        <ele>389</ele>
        <time>2007-03-11T10:08:30.000Z</time>
      </trkpt>
      <trkpt lat="44.42707" lon="1.8919">
        <ele>388</ele>
        <time>2007-03-11T10:08:47.000Z</time>
      </trkpt>
      <trkpt lat="44.42737" lon="1.89275">
        <ele>389</ele>
        <time>2007-03-11T10:09:02.000Z</time>
      </trkpt>
      <trkpt lat="44.42777" lon="1.89385">
        <ele>389</ele>
        <time>2007-03-11T10:09:24.000Z</time>
      </trkpt>
      <trkpt lat="44.42806" lon="1.89453">
        <ele>388</ele>
        <time>2007-03-11T10:09:40.000Z</time>
      </trkpt>
      <trkpt lat="44.42826" lon="1.89518">
        <ele>385</ele>
        <time>2007-03-11T10:09:53.000Z</time>
      </trkpt>
      <trkpt lat="44.42833" lon="1.8955">
        <ele>384</ele>
        <time>2007-03-11T10:10:05.000Z</time>
      </trkpt>
      <trkpt lat="44.42843" lon="1.89594">
        <ele>383</ele>
        <time>2007-03-11T10:10:19.000Z</time>
      </trkpt>
      <trkpt lat="44.42856" lon="1.89632">
        <ele>380</ele>
        <time>2007-03-11T10:10:31.000Z</time>
      </trkpt>
      <trkpt lat="44.42872" lon="1.89682">
        <ele>378</ele>
        <time>2007-03-11T10:10:44.000Z</time>
      </trkpt>
      <trkpt lat="44.42886" lon="1.89709">
        <ele>377</ele>
        <time>2007-03-11T10:10:54.000Z</time>
      </trkpt>
      <trkpt lat="44.42913" lon="1.89729">
        <ele>375</ele>
        <time>2007-03-11T10:11:07.000Z</time>
      </trkpt>
      <trkpt lat="44.42923" lon="1.89728">
        <ele>375</ele>
        <time>2007-03-11T10:11:10.000Z</time>
      </trkpt>
      <trkpt lat="44.42947" lon="1.89725">
        <ele>371</ele>
        <time>2007-03-11T10:11:15.000Z</time>
      </trkpt>
      <trkpt lat="44.4297" lon="1.89723">
        <ele>368</ele>
        <time>2007-03-11T10:11:18.000Z</time>
      </trkpt>
      <trkpt lat="44.42985" lon="1.89721">
        <ele>364</ele>
        <time>2007-03-11T10:11:20.000Z</time>
      </trkpt>
      <trkpt lat="44.42993" lon="1.89721">
        <ele>364</ele>
        <time>2007-03-11T10:11:21.000Z</time>
      </trkpt>
      <trkpt lat="44.42999" lon="1.8972">
        <ele>363</ele>
        <time>2007-03-11T10:11:22.000Z</time>
      </trkpt>
      <trkpt lat="44.43017" lon="1.89725">
        <ele>359</ele>
        <time>2007-03-11T10:11:25.000Z</time>
      </trkpt>
      <trkpt lat="44.43022" lon="1.89729">
        <ele>359</ele>
        <time>2007-03-11T10:11:26.000Z</time>
      </trkpt>
      <trkpt lat="44.43047" lon="1.89739">
        <ele>354</ele>
        <time>2007-03-11T10:11:31.000Z</time>
      </trkpt>
      <trkpt lat="44.43057" lon="1.89751">
        <ele>353</ele>
        <time>2007-03-11T10:11:35.000Z</time>
      </trkpt>
      <trkpt lat="44.43067" lon="1.89763">
        <ele>353</ele>
        <time>2007-03-11T10:11:38.000Z</time>
      </trkpt>
      <trkpt lat="44.43105" lon="1.89851">
        <ele>352</ele>
        <time>2007-03-11T10:11:51.000Z</time>
      </trkpt>
      <trkpt lat="44.43124" lon="1.89897">
        <ele>354</ele>
        <time>2007-03-11T10:11:59.000Z</time>
      </trkpt>
      <trkpt lat="44.43134" lon="1.89933">
        <ele>355</ele>
        <time>2007-03-11T10:12:06.000Z</time>
      </trkpt>
      <trkpt lat="44.43136" lon="1.89994">
        <ele>353</ele>
        <time>2007-03-11T10:12:16.000Z</time>
      </trkpt>
      <trkpt lat="44.43135" lon="1.90008">
        <ele>353</ele>
        <time>2007-03-11T10:12:18.000Z</time>
      </trkpt>
      <trkpt lat="44.43135" lon="1.90028">
        <ele>353</ele>
        <time>2007-03-11T10:12:21.000Z</time>
      </trkpt>
      <trkpt lat="44.43148" lon="1.90109">
        <ele>354</ele>
        <time>2007-03-11T10:12:33.000Z</time>
      </trkpt>
      <trkpt lat="44.4318" lon="1.90179">
        <ele>353</ele>
        <time>2007-03-11T10:12:46.000Z</time>
      </trkpt>
      <trkpt lat="44.43189" lon="1.90191">
        <ele>351</ele>
        <time>2007-03-11T10:12:48.000Z</time>
      </trkpt>
      <trkpt lat="44.43224" lon="1.90243">
        <ele>351</ele>
        <time>2007-03-11T10:12:57.000Z</time>
      </trkpt>
      <trkpt lat="44.43246" lon="1.90301">
        <ele>347</ele>
        <time>2007-03-11T10:13:05.000Z</time>
      </trkpt>
      <trkpt lat="44.4325" lon="1.90308">
        <ele>347</ele>
        <time>2007-03-11T10:13:06.000Z</time>
      </trkpt>
      <trkpt lat="44.43267" lon="1.90351">
        <ele>343</ele>
        <time>2007-03-11T10:13:11.000Z</time>
      </trkpt>
      <trkpt lat="44.43272" lon="1.90368">
        <ele>343</ele>
        <time>2007-03-11T10:13:13.000Z</time>
      </trkpt>
      <trkpt lat="44.43276" lon="1.90383">
        <ele>341</ele>
        <time>2007-03-11T10:13:15.000Z</time>
      </trkpt>
      <trkpt lat="44.43283" lon="1.90418">
        <ele>340</ele>
        <time>2007-03-11T10:13:20.000Z</time>
      </trkpt>
      <trkpt lat="44.43272" lon="1.90439">
        <ele>339</ele>
        <time>2007-03-11T10:13:24.000Z</time>
      </trkpt>
      <trkpt lat="44.4329" lon="1.90481">
        <ele>339</ele>
        <time>2007-03-11T10:13:32.000Z</time>
      </trkpt>
      <trkpt lat="44.43314" lon="1.90484">
        <ele>338</ele>
        <time>2007-03-11T10:13:37.000Z</time>
      </trkpt>
      <trkpt lat="44.43351" lon="1.9047">
        <ele>335</ele>
        <time>2007-03-11T10:13:43.000Z</time>
      </trkpt>
      <trkpt lat="44.43388" lon="1.90439">
        <ele>332</ele>
        <time>2007-03-11T10:13:50.000Z</time>
      </trkpt>
      <trkpt lat="44.43395" lon="1.90429">
        <ele>330</ele>
        <time>2007-03-11T10:13:52.000Z</time>
      </trkpt>
      <trkpt lat="44.43398" lon="1.90393">
        <ele>325</ele>
        <time>2007-03-11T10:13:58.000Z</time>
      </trkpt>
      <trkpt lat="44.43404" lon="1.90372">
        <ele>323</ele>
        <time>2007-03-11T10:14:03.000Z</time>
      </trkpt>
      <trkpt lat="44.43436" lon="1.90335">
        <ele>318</ele>
        <time>2007-03-11T10:14:12.000Z</time>
      </trkpt>
      <trkpt lat="44.4345" lon="1.90316">
        <ele>315</ele>
        <time>2007-03-11T10:14:16.000Z</time>
      </trkpt>
      <trkpt lat="44.4347" lon="1.90287">
        <ele>312</ele>
        <time>2007-03-11T10:14:21.000Z</time>
      </trkpt>
      <trkpt lat="44.43493" lon="1.90247">
        <ele>308</ele>
        <time>2007-03-11T10:14:27.000Z</time>
      </trkpt>
      <trkpt lat="44.43625" lon="1.90161">
        <ele>300</ele>
        <time>2007-03-11T10:14:53.000Z</time>
      </trkpt>
      <trkpt lat="44.43651" lon="1.90154">
        <ele>298</ele>
        <time>2007-03-11T10:14:57.000Z</time>
      </trkpt>
      <trkpt lat="44.4367" lon="1.90147">
        <ele>296</ele>
        <time>2007-03-11T10:15:00.000Z</time>
      </trkpt>
      <trkpt lat="44.43684" lon="1.90141">
        <ele>295</ele>
        <time>2007-03-11T10:15:02.000Z</time>
      </trkpt>
      <trkpt lat="44.43695" lon="1.90132">
        <ele>294</ele>
        <time>2007-03-11T10:15:04.000Z</time>
      </trkpt>
      <trkpt lat="44.43741" lon="1.90098">
        <ele>290</ele>
        <time>2007-03-11T10:15:13.000Z</time>
      </trkpt>
      <trkpt lat="44.43767" lon="1.90075">
        <ele>287</ele>
        <time>2007-03-11T10:15:18.000Z</time>
      </trkpt>
      <trkpt lat="44.43809" lon="1.90042">
        <ele>286</ele>
        <time>2007-03-11T10:15:28.000Z</time>
      </trkpt>
      <trkpt lat="44.43818" lon="1.9005">
        <ele>285</ele>
        <time>2007-03-11T10:15:31.000Z</time>
      </trkpt>
      <trkpt lat="44.43869" lon="1.90081">
        <ele>280</ele>
        <time>2007-03-11T10:15:43.000Z</time>
      </trkpt>
      <trkpt lat="44.43977" lon="1.901">
        <ele>275</ele>
        <time>2007-03-11T10:16:12.000Z</time>
      </trkpt>
      <trkpt lat="44.4401" lon="1.90104">
        <ele>271</ele>
        <time>2007-03-11T10:16:19.000Z</time>
      </trkpt>
      <trkpt lat="44.44089" lon="1.90114">
        <ele>266</ele>
        <time>2007-03-11T10:16:31.000Z</time>
      </trkpt>
      <trkpt lat="44.44104" lon="1.90118">
        <ele>265</ele>
        <time>2007-03-11T10:16:33.000Z</time>
      </trkpt>
      <trkpt lat="44.44152" lon="1.90149">
        <ele>263</ele>
        <time>2007-03-11T10:16:41.000Z</time>
      </trkpt>
      <trkpt lat="44.44212" lon="1.90188">
        <ele>260</ele>
        <time>2007-03-11T10:16:52.000Z</time>
      </trkpt>
      <trkpt lat="44.44229" lon="1.90183">
        <ele>261</ele>
        <time>2007-03-11T10:16:57.000Z</time>
      </trkpt>
      <trkpt lat="44.44245" lon="1.90182">
        <ele>261</ele>
        <time>2007-03-11T10:17:03.000Z</time>
      </trkpt>
      <trkpt lat="44.44289" lon="1.90042">
        <ele>258</ele>
        <time>2007-03-11T10:17:33.000Z</time>
      </trkpt>
      <trkpt lat="44.44288" lon="1.90011">
        <ele>256</ele>
        <time>2007-03-11T10:17:37.000Z</time>
      </trkpt>
      <trkpt lat="44.44288" lon="1.89987">
        <ele>254</ele>
        <time>2007-03-11T10:17:40.000Z</time>
      </trkpt>
      <trkpt lat="44.44289" lon="1.89972">
        <ele>254</ele>
        <time>2007-03-11T10:17:42.000Z</time>
      </trkpt>
      <trkpt lat="44.4431" lon="1.89881">
        <ele>251</ele>
        <time>2007-03-11T10:17:55.000Z</time>
      </trkpt>
      <trkpt lat="44.44375" lon="1.89741">
        <ele>248</ele>
        <time>2007-03-11T10:18:18.000Z</time>
      </trkpt>
      <trkpt lat="44.44496" lon="1.89784">
        <ele>247</ele>
        <time>2007-03-11T10:18:26.000Z</time>
      </trkpt>
      <trkpt lat="44.44492" lon="1.89793">
        <ele>247</ele>
        <time>2007-03-11T10:18:30.000Z</time>
      </trkpt>
      <trkpt lat="44.44568" lon="1.89905">
        <ele>246</ele>
        <time>2007-03-11T10:18:59.000Z</time>
      </trkpt>
      <trkpt lat="44.44584" lon="1.89909">
        <ele>246</ele>
        <time>2007-03-11T10:19:02.000Z</time>
      </trkpt>
      <trkpt lat="44.44595" lon="1.8991">
        <ele>245</ele>
        <time>2007-03-11T10:19:04.000Z</time>
      </trkpt>
      <trkpt lat="44.44659" lon="1.89901">
        <ele>242</ele>
        <time>2007-03-11T10:19:16.000Z</time>
      </trkpt>
      <trkpt lat="44.44735" lon="1.89913">
        <ele>239</ele>
        <time>2007-03-11T10:19:29.000Z</time>
      </trkpt>
      <trkpt lat="44.44862" lon="1.89991">
        <ele>236</ele>
        <time>2007-03-11T10:19:54.000Z</time>
      </trkpt>
      <trkpt lat="44.45" lon="1.89639">
        <ele>231</ele>
        <time>2007-03-11T10:21:04.000Z</time>
      </trkpt>
      <trkpt lat="44.44998" lon="1.89635">
        <ele>230</ele>
        <time>2007-03-11T10:21:06.000Z</time>
      </trkpt>
      <trkpt lat="44.45039" lon="1.89592">
        <ele>228</ele>
        <time>2007-03-11T10:21:21.000Z</time>
      </trkpt>
      <trkpt lat="44.45321" lon="1.89328">
        <ele>222</ele>
        <time>2007-03-11T10:22:54.000Z</time>
      </trkpt>
      <trkpt lat="44.45339" lon="1.89199">
        <ele>220</ele>
        <time>2007-03-11T10:23:12.000Z</time>
      </trkpt>
      <trkpt lat="44.45341" lon="1.89149">
        <ele>220</ele>
        <time>2007-03-11T10:23:19.000Z</time>
      </trkpt>
      <trkpt lat="44.4536" lon="1.89111">
        <ele>219</ele>
        <time>2007-03-11T10:23:25.000Z</time>
      </trkpt>
      <trkpt lat="44.45451" lon="1.89016">
        <ele>215</ele>
        <time>2007-03-11T10:23:46.000Z</time>
      </trkpt>
      <trkpt lat="44.45579" lon="1.88928">
        <ele>212</ele>
        <time>2007-03-11T10:24:11.000Z</time>
      </trkpt>
      <trkpt lat="44.45604" lon="1.88945">
        <ele>212</ele>
        <time>2007-03-11T10:24:16.000Z</time>
      </trkpt>
      <trkpt lat="44.45614" lon="1.88985">
        <ele>211</ele>
        <time>2007-03-11T10:24:22.000Z</time>
      </trkpt>
      <trkpt lat="44.45627" lon="1.89014">
        <ele>212</ele>
        <time>2007-03-11T10:24:27.000Z</time>
      </trkpt>
      <trkpt lat="44.45702" lon="1.89098">
        <ele>213</ele>
        <time>2007-03-11T10:24:48.000Z</time>
      </trkpt>
      <trkpt lat="44.45709" lon="1.89102">
        <ele>214</ele>
        <time>2007-03-11T10:24:50.000Z</time>
      </trkpt>
      <trkpt lat="44.45766" lon="1.89139">
        <ele>216</ele>
        <time>2007-03-11T10:25:08.000Z</time>
      </trkpt>
      <trkpt lat="44.45802" lon="1.89186">
        <ele>217</ele>
        <time>2007-03-11T10:25:25.000Z</time>
      </trkpt>
      <trkpt lat="44.45834" lon="1.89215">
        <ele>218</ele>
        <time>2007-03-11T10:25:40.000Z</time>
      </trkpt>
      <trkpt lat="44.45816" lon="1.89293">
        <ele>220</ele>
        <time>2007-03-11T10:26:06.000Z</time>
      </trkpt>
      <trkpt lat="44.45784" lon="1.89369">
        <ele>223</ele>
        <time>2007-03-11T10:26:28.000Z</time>
      </trkpt>
      <trkpt lat="44.45764" lon="1.8945">
        <ele>224</ele>
        <time>2007-03-11T10:26:51.000Z</time>
      </trkpt>
      <trkpt lat="44.45717" lon="1.89499">
        <ele>225</ele>
        <time>2007-03-11T10:27:14.000Z</time>
      </trkpt>
      <trkpt lat="44.45629" lon="1.89641">
        <ele>228</ele>
        <time>2007-03-11T10:28:05.000Z</time>
      </trkpt>
      <trkpt lat="44.45612" lon="1.89665">
        <ele>229</ele>
        <time>2007-03-11T10:28:14.000Z</time>
      </trkpt>
      <trkpt lat="44.45567" lon="1.89758">
        <ele>232</ele>
        <time>2007-03-11T10:28:45.000Z</time>
      </trkpt>
      <trkpt lat="44.45535" lon="1.89813">
        <ele>233</ele>
        <time>2007-03-11T10:29:07.000Z</time>
      </trkpt>
      <trkpt lat="44.45515" lon="1.89885">
        <ele>235</ele>
        <time>2007-03-11T10:29:26.000Z</time>
      </trkpt>
      <trkpt lat="44.45506" lon="1.90031">
        <ele>239</ele>
        <time>2007-03-11T10:30:14.000Z</time>
      </trkpt>
      <trkpt lat="44.45517" lon="1.90075">
        <ele>240</ele>
        <time>2007-03-11T10:30:30.000Z</time>
      </trkpt>
      <trkpt lat="44.45499" lon="1.90132">
        <ele>243</ele>
        <time>2007-03-11T10:30:51.000Z</time>
      </trkpt>
      <trkpt lat="44.45492" lon="1.90203">
        <ele>244</ele>
        <time>2007-03-11T10:31:14.000Z</time>
      </trkpt>
      <trkpt lat="44.45489" lon="1.90264">
        <ele>247</ele>
        <time>2007-03-11T10:31:34.000Z</time>
      </trkpt>
      <trkpt lat="44.45462" lon="1.90296">
        <ele>248</ele>
        <time>2007-03-11T10:31:53.000Z</time>
      </trkpt>
      <trkpt lat="44.45395" lon="1.90262">
        <ele>253</ele>
        <time>2007-03-11T10:32:35.000Z</time>
      </trkpt>
      <trkpt lat="44.45332" lon="1.90235">
        <ele>255</ele>
        <time>2007-03-11T10:33:06.000Z</time>
      </trkpt>
      <trkpt lat="44.45258" lon="1.9029">
        <ele>261</ele>
        <time>2007-03-11T10:33:49.000Z</time>
      </trkpt>
      <trkpt lat="44.45209" lon="1.90333">
        <ele>263</ele>
        <time>2007-03-11T10:34:15.000Z</time>
      </trkpt>
      <trkpt lat="44.45161" lon="1.90371">
        <ele>266</ele>
        <time>2007-03-11T10:34:42.000Z</time>
      </trkpt>
      <trkpt lat="44.45075" lon="1.90424">
        <ele>271</ele>
        <time>2007-03-11T10:35:30.000Z</time>
      </trkpt>
      <trkpt lat="44.45026" lon="1.90449">
        <ele>274</ele>
        <time>2007-03-11T10:35:53.000Z</time>
      </trkpt>
      <trkpt lat="44.44976" lon="1.90469">
        <ele>277</ele>
        <time>2007-03-11T10:36:19.000Z</time>
      </trkpt>
      <trkpt lat="44.44922" lon="1.90493">
        <ele>279</ele>
        <time>2007-03-11T10:36:45.000Z</time>
      </trkpt>
      <trkpt lat="44.44871" lon="1.90536">
        <ele>282</ele>
        <time>2007-03-11T10:37:12.000Z</time>
      </trkpt>
      <trkpt lat="44.44834" lon="1.90584">
        <ele>284</ele>
        <time>2007-03-11T10:37:35.000Z</time>
      </trkpt>
      <trkpt lat="44.44777" lon="1.90661">
        <ele>289</ele>
        <time>2007-03-11T10:38:13.000Z</time>
      </trkpt>
      <trkpt lat="44.44774" lon="1.90731">
        <ele>291</ele>
        <time>2007-03-11T10:38:34.000Z</time>
      </trkpt>
      <trkpt lat="44.4478" lon="1.90767">
        <ele>295</ele>
        <time>2007-03-11T10:38:46.000Z</time>
      </trkpt>
      <trkpt lat="44.44814" lon="1.90815">
        <ele>297</ele>
        <time>2007-03-11T10:39:09.000Z</time>
      </trkpt>
      <trkpt lat="44.44837" lon="1.90865">
        <ele>299</ele>
        <time>2007-03-11T10:39:29.000Z</time>
      </trkpt>
      <trkpt lat="44.44848" lon="1.90933">
        <ele>302</ele>
        <time>2007-03-11T10:39:49.000Z</time>
      </trkpt>
      <trkpt lat="44.44866" lon="1.91001">
        <ele>304</ele>
        <time>2007-03-11T10:40:12.000Z</time>
      </trkpt>
      <trkpt lat="44.4488" lon="1.91033">
        <ele>308</ele>
        <time>2007-03-11T10:40:26.000Z</time>
      </trkpt>
      <trkpt lat="44.4491" lon="1.91048">
        <ele>309</ele>
        <time>2007-03-11T10:40:43.000Z</time>
      </trkpt>
      <trkpt lat="44.44948" lon="1.91079">
        <ele>312</ele>
        <time>2007-03-11T10:41:05.000Z</time>
      </trkpt>
      <trkpt lat="44.44954" lon="1.91087">
        <ele>314</ele>
        <time>2007-03-11T10:41:10.000Z</time>
      </trkpt>
      <trkpt lat="44.44961" lon="1.91133">
        <ele>313</ele>
        <time>2007-03-11T10:41:28.000Z</time>
      </trkpt>
      <trkpt lat="44.44954" lon="1.91211">
        <ele>315</ele>
        <time>2007-03-11T10:41:52.000Z</time>
      </trkpt>
      <trkpt lat="44.44955" lon="1.91263">
        <ele>318</ele>
        <time>2007-03-11T10:42:08.000Z</time>
      </trkpt>
      <trkpt lat="44.44962" lon="1.91318">
        <ele>319</ele>
        <time>2007-03-11T10:42:27.000Z</time>
      </trkpt>
      <trkpt lat="44.44965" lon="1.91382">
        <ele>323</ele>
        <time>2007-03-11T10:42:46.000Z</time>
      </trkpt>
      <trkpt lat="44.44946" lon="1.91428">
        <ele>325</ele>
        <time>2007-03-11T10:43:03.000Z</time>
      </trkpt>
      <trkpt lat="44.44939" lon="1.91459">
        <ele>327</ele>
        <time>2007-03-11T10:43:16.000Z</time>
      </trkpt>
      <trkpt lat="44.44923" lon="1.91476">
        <ele>331</ele>
        <time>2007-03-11T10:43:32.000Z</time>
      </trkpt>
      <trkpt lat="44.44909" lon="1.91477">
        <ele>334</ele>
        <time>2007-03-11T10:43:42.000Z</time>
      </trkpt>
      <trkpt lat="44.44884" lon="1.91499">
        <ele>337</ele>
        <time>2007-03-11T10:44:02.000Z</time>
      </trkpt>
      <trkpt lat="44.44865" lon="1.91518">
        <ele>339</ele>
        <time>2007-03-11T10:44:18.000Z</time>
      </trkpt>
      <trkpt lat="44.44845" lon="1.91555">
        <ele>341</ele>
        <time>2007-03-11T10:44:38.000Z</time>
      </trkpt>
      <trkpt lat="44.44827" lon="1.91596">
        <ele>343</ele>
        <time>2007-03-11T10:44:56.000Z</time>
      </trkpt>
      <trkpt lat="44.448" lon="1.91638">
        <ele>345</ele>
        <time>2007-03-11T10:45:15.000Z</time>
      </trkpt>
      <trkpt lat="44.44778" lon="1.91677">
        <ele>347</ele>
        <time>2007-03-11T10:45:31.000Z</time>
      </trkpt>
      <trkpt lat="44.44756" lon="1.9171">
        <ele>350</ele>
        <time>2007-03-11T10:45:47.000Z</time>
      </trkpt>
      <trkpt lat="44.44726" lon="1.91741">
        <ele>352</ele>
        <time>2007-03-11T10:46:05.000Z</time>
      </trkpt>
      <trkpt lat="44.44703" lon="1.91765">
        <ele>356</ele>
        <time>2007-03-11T10:46:19.000Z</time>
      </trkpt>
      <trkpt lat="44.44685" lon="1.91776">
        <ele>357</ele>
        <time>2007-03-11T10:46:29.000Z</time>
      </trkpt>
      <trkpt lat="44.44649" lon="1.91772">
        <ele>360</ele>
        <time>2007-03-11T10:46:46.000Z</time>
      </trkpt>
      <trkpt lat="44.44611" lon="1.91768">
        <ele>360</ele>
        <time>2007-03-11T10:47:04.000Z</time>
      </trkpt>
      <trkpt lat="44.44609" lon="1.91767">
        <ele>361</ele>
        <time>2007-03-11T10:47:19.000Z</time>
      </trkpt>
      <trkpt lat="44.44607" lon="1.91763">
        <ele>360</ele>
        <time>2007-03-11T10:47:46.000Z</time>
      </trkpt>
      <trkpt lat="44.44608" lon="1.91763">
        <ele>360</ele>
        <time>2007-03-11T10:50:10.000Z</time>
      </trkpt>
      <trkpt lat="44.44608" lon="1.91766">
        <ele>361</ele>
        <time>2007-03-11T10:51:02.000Z</time>
      </trkpt>
      <trkpt lat="44.44608" lon="1.91766">
        <ele>359</ele>
        <time>2007-03-11T10:51:05.000Z</time>
      </trkpt>
      <trkpt lat="44.44607" lon="1.91766">
        <ele>360</ele>
        <time>2007-03-11T10:52:02.000Z</time>
      </trkpt>
      <trkpt lat="44.44606" lon="1.91765">
        <ele>360</ele>
        <time>2007-03-11T10:53:09.000Z</time>
      </trkpt>
      <trkpt lat="44.44606" lon="1.91771">
        <ele>360</ele>
        <time>2007-03-11T10:53:37.000Z</time>
      </trkpt>
      <trkpt lat="44.44577" lon="1.91813">
        <ele>361</ele>
        <time>2007-03-11T10:53:52.000Z</time>
      </trkpt>
      <trkpt lat="44.44552" lon="1.91883">
        <ele>362</ele>
        <time>2007-03-11T10:54:07.000Z</time>
      </trkpt>
      <trkpt lat="44.44494" lon="1.91972">
        <ele>362</ele>
        <time>2007-03-11T10:54:27.000Z</time>
      </trkpt>
      <trkpt lat="44.444" lon="1.92097">
        <ele>356</ele>
        <time>2007-03-11T10:54:52.000Z</time>
      </trkpt>
      <trkpt lat="44.44384" lon="1.92103">
        <ele>355</ele>
        <time>2007-03-11T10:54:55.000Z</time>
      </trkpt>
      <trkpt lat="44.44378" lon="1.92105">
        <ele>355</ele>
        <time>2007-03-11T10:54:56.000Z</time>
      </trkpt>
      <trkpt lat="44.44368" lon="1.92109">
        <ele>355</ele>
        <time>2007-03-11T10:54:58.000Z</time>
      </trkpt>
      <trkpt lat="44.44316" lon="1.92161">
        <ele>357</ele>
        <time>2007-03-11T10:55:13.000Z</time>
      </trkpt>
      <trkpt lat="44.44275" lon="1.92212">
        <ele>360</ele>
        <time>2007-03-11T10:55:28.000Z</time>
      </trkpt>
      <trkpt lat="44.44244" lon="1.92253">
        <ele>363</ele>
        <time>2007-03-11T10:55:41.000Z</time>
      </trkpt>
      <trkpt lat="44.44208" lon="1.9231">
        <ele>365</ele>
        <time>2007-03-11T10:55:59.000Z</time>
      </trkpt>
      <trkpt lat="44.44195" lon="1.92339">
        <ele>369</ele>
        <time>2007-03-11T10:56:08.000Z</time>
      </trkpt>
      <trkpt lat="44.44165" lon="1.92398">
        <ele>372</ele>
        <time>2007-03-11T10:56:28.000Z</time>
      </trkpt>
      <trkpt lat="44.44145" lon="1.92438">
        <ele>375</ele>
        <time>2007-03-11T10:56:42.000Z</time>
      </trkpt>
      <trkpt lat="44.44119" lon="1.92488">
        <ele>377</ele>
        <time>2007-03-11T10:56:59.000Z</time>
      </trkpt>
      <trkpt lat="44.44083" lon="1.92464">
        <ele>378</ele>
        <time>2007-03-11T10:57:12.000Z</time>
      </trkpt>
      <trkpt lat="44.44057" lon="1.92411">
        <ele>379</ele>
        <time>2007-03-11T10:57:27.000Z</time>
      </trkpt>
      <trkpt lat="44.44038" lon="1.92362">
        <ele>382</ele>
        <time>2007-03-11T10:57:40.000Z</time>
      </trkpt>
      <trkpt lat="44.44011" lon="1.92304">
        <ele>383</ele>
        <time>2007-03-11T10:57:56.000Z</time>
      </trkpt>
      <trkpt lat="44.43974" lon="1.92199">
        <ele>382</ele>
        <time>2007-03-11T10:58:16.000Z</time>
      </trkpt>
      <trkpt lat="44.43954" lon="1.92151">
        <ele>383</ele>
        <time>2007-03-11T10:58:25.000Z</time>
      </trkpt>
      <trkpt lat="44.43923" lon="1.92112">
        <ele>385</ele>
        <time>2007-03-11T10:58:35.000Z</time>
      </trkpt>
      <trkpt lat="44.43903" lon="1.92098">
        <ele>385</ele>
        <time>2007-03-11T10:58:40.000Z</time>
      </trkpt>
      <trkpt lat="44.43836" lon="1.92077">
        <ele>382</ele>
        <time>2007-03-11T10:58:53.000Z</time>
      </trkpt>
      <trkpt lat="44.43787" lon="1.92072">
        <ele>382</ele>
        <time>2007-03-11T10:59:02.000Z</time>
      </trkpt>
      <trkpt lat="44.43722" lon="1.92076">
        <ele>382</ele>
        <time>2007-03-11T10:59:15.000Z</time>
      </trkpt>
      <trkpt lat="44.43645" lon="1.92043">
        <ele>383</ele>
        <time>2007-03-11T10:59:32.000Z</time>
      </trkpt>
      <trkpt lat="44.43558" lon="1.92018">
        <ele>383</ele>
        <time>2007-03-11T10:59:50.000Z</time>
      </trkpt>
      <trkpt lat="44.43483" lon="1.92011">
        <ele>380</ele>
        <time>2007-03-11T11:00:03.000Z</time>
      </trkpt>
      <trkpt lat="44.43468" lon="1.92009">
        <ele>378</ele>
        <time>2007-03-11T11:00:05.000Z</time>
      </trkpt>
      <trkpt lat="44.43403" lon="1.91999">
        <ele>376</ele>
        <time>2007-03-11T11:00:14.000Z</time>
      </trkpt>
      <trkpt lat="44.4337" lon="1.92033">
        <ele>376</ele>
        <time>2007-03-11T11:00:21.000Z</time>
      </trkpt>
      <trkpt lat="44.43331" lon="1.91991">
        <ele>374</ele>
        <time>2007-03-11T11:00:34.000Z</time>
      </trkpt>
      <trkpt lat="44.43329" lon="1.91988">
        <ele>375</ele>
        <time>2007-03-11T11:00:47.000Z</time>
      </trkpt>
      <trkpt lat="44.43325" lon="1.91986">
        <ele>375</ele>
        <time>2007-03-11T11:00:51.000Z</time>
      </trkpt>
      <trkpt lat="44.43292" lon="1.91971">
        <ele>377</ele>
        <time>2007-03-11T11:01:09.000Z</time>
      </trkpt>
      <trkpt lat="44.43244" lon="1.91958">
        <ele>380</ele>
        <time>2007-03-11T11:01:26.000Z</time>
      </trkpt>
      <trkpt lat="44.43199" lon="1.91952">
        <ele>384</ele>
        <time>2007-03-11T11:01:41.000Z</time>
      </trkpt>
      <trkpt lat="44.43144" lon="1.91932">
        <ele>385</ele>
        <time>2007-03-11T11:02:01.000Z</time>
      </trkpt>
      <trkpt lat="44.43108" lon="1.91894">
        <ele>381</ele>
        <time>2007-03-11T11:02:13.000Z</time>
      </trkpt>
      <trkpt lat="44.43104" lon="1.91889">
        <ele>380</ele>
        <time>2007-03-11T11:02:14.000Z</time>
      </trkpt>
      <trkpt lat="44.43075" lon="1.91862">
        <ele>377</ele>
        <time>2007-03-11T11:02:19.000Z</time>
      </trkpt>
      <trkpt lat="44.43056" lon="1.91845">
        <ele>376</ele>
        <time>2007-03-11T11:02:22.000Z</time>
      </trkpt>
      <trkpt lat="44.43021" lon="1.9181">
        <ele>373</ele>
        <time>2007-03-11T11:02:27.000Z</time>
      </trkpt>
      <trkpt lat="44.43007" lon="1.91795">
        <ele>371</ele>
        <time>2007-03-11T11:02:29.000Z</time>
      </trkpt>
      <trkpt lat="44.42954" lon="1.91762">
        <ele>369</ele>
        <time>2007-03-11T11:02:35.000Z</time>
      </trkpt>
      <trkpt lat="44.42931" lon="1.91742">
        <ele>368</ele>
        <time>2007-03-11T11:02:38.000Z</time>
      </trkpt>
      <trkpt lat="44.42917" lon="1.91729">
        <ele>367</ele>
        <time>2007-03-11T11:02:40.000Z</time>
      </trkpt>
      <trkpt lat="44.42901" lon="1.917">
        <ele>367</ele>
        <time>2007-03-11T11:02:44.000Z</time>
      </trkpt>
      <trkpt lat="44.42904" lon="1.9162">
        <ele>364</ele>
        <time>2007-03-11T11:02:53.000Z</time>
      </trkpt>
      <trkpt lat="44.42903" lon="1.9161">
        <ele>364</ele>
        <time>2007-03-11T11:02:54.000Z</time>
      </trkpt>
      <trkpt lat="44.42902" lon="1.916">
        <ele>363</ele>
        <time>2007-03-11T11:02:55.000Z</time>
      </trkpt>
      <trkpt lat="44.42891" lon="1.91566">
        <ele>360</ele>
        <time>2007-03-11T11:02:58.000Z</time>
      </trkpt>
      <trkpt lat="44.4287" lon="1.91537">
        <ele>359</ele>
        <time>2007-03-11T11:03:01.000Z</time>
      </trkpt>
      <trkpt lat="44.42861" lon="1.91529">
        <ele>358</ele>
        <time>2007-03-11T11:03:02.000Z</time>
      </trkpt>
      <trkpt lat="44.42829" lon="1.91502">
        <ele>356</ele>
        <time>2007-03-11T11:03:06.000Z</time>
      </trkpt>
      <trkpt lat="44.42786" lon="1.91465">
        <ele>353</ele>
        <time>2007-03-11T11:03:12.000Z</time>
      </trkpt>
      <trkpt lat="44.42741" lon="1.9142">
        <ele>351</ele>
        <time>2007-03-11T11:03:18.000Z</time>
      </trkpt>
      <trkpt lat="44.42735" lon="1.91411">
        <ele>351</ele>
        <time>2007-03-11T11:03:19.000Z</time>
      </trkpt>
      <trkpt lat="44.42722" lon="1.91392">
        <ele>349</ele>
        <time>2007-03-11T11:03:21.000Z</time>
      </trkpt>
      <trkpt lat="44.42674" lon="1.91276">
        <ele>347</ele>
        <time>2007-03-11T11:03:32.000Z</time>
      </trkpt>
      <trkpt lat="44.42674" lon="1.9126">
        <ele>345</ele>
        <time>2007-03-11T11:03:34.000Z</time>
      </trkpt>
      <trkpt lat="44.42679" lon="1.91253">
        <ele>346</ele>
        <time>2007-03-11T11:03:37.000Z</time>
      </trkpt>
      <trkpt lat="44.42683" lon="1.91271">
        <ele>346</ele>
        <time>2007-03-11T11:03:50.000Z</time>
      </trkpt>
      <trkpt lat="44.42691" lon="1.91271">
        <ele>345</ele>
        <time>2007-03-11T11:04:03.000Z</time>
      </trkpt>
      <trkpt lat="44.42695" lon="1.9127">
        <ele>345</ele>
        <time>2007-03-11T11:04:10.000Z</time>
      </trkpt>
      <trkpt lat="44.42699" lon="1.91261">
        <ele>345</ele>
        <time>2007-03-11T11:04:25.000Z</time>
      </trkpt>
      <trkpt lat="44.42704" lon="1.91256">
        <ele>346</ele>
        <time>2007-03-11T11:04:53.000Z</time>
      </trkpt>
      <trkpt lat="44.42706" lon="1.91247">
        <ele>347</ele>
        <time>2007-03-11T11:06:33.000Z</time>
      </trkpt>
      <trkpt lat="44.42714" lon="1.91232">
        <ele>347</ele>
        <time>2007-03-11T11:06:38.000Z</time>
      </trkpt>
      <trkpt lat="44.42736" lon="1.9115">
        <ele>347</ele>
        <time>2007-03-11T11:06:52.000Z</time>
      </trkpt>
      <trkpt lat="44.42745" lon="1.91085">
        <ele>349</ele>
        <time>2007-03-11T11:07:08.000Z</time>
      </trkpt>
      <trkpt lat="44.42758" lon="1.91028">
        <ele>351</ele>
        <time>2007-03-11T11:07:25.000Z</time>
      </trkpt>
      <trkpt lat="44.42761" lon="1.91005">
        <ele>354</ele>
        <time>2007-03-11T11:07:33.000Z</time>
      </trkpt>
      <trkpt lat="44.42771" lon="1.90966">
        <ele>357</ele>
        <time>2007-03-11T11:07:48.000Z</time>
      </trkpt>
      <trkpt lat="44.42777" lon="1.90928">
        <ele>359</ele>
        <time>2007-03-11T11:08:02.000Z</time>
      </trkpt>
      <trkpt lat="44.4279" lon="1.90888">
        <ele>362</ele>
        <time>2007-03-11T11:08:19.000Z</time>
      </trkpt>
      <trkpt lat="44.42804" lon="1.90862">
        <ele>365</ele>
        <time>2007-03-11T11:08:33.000Z</time>
      </trkpt>
      <trkpt lat="44.42804" lon="1.9086">
        <ele>365</ele>
        <time>2007-03-11T11:08:34.000Z</time>
      </trkpt>
      <trkpt lat="44.4282" lon="1.90836">
        <ele>367</ele>
        <time>2007-03-11T11:08:49.000Z</time>
      </trkpt>
      <trkpt lat="44.4283" lon="1.90821">
        <ele>371</ele>
        <time>2007-03-11T11:08:59.000Z</time>
      </trkpt>
      <trkpt lat="44.42838" lon="1.90812">
        <ele>372</ele>
        <time>2007-03-11T11:09:06.000Z</time>
      </trkpt>
      <trkpt lat="44.4286" lon="1.90801">
        <ele>374</ele>
        <time>2007-03-11T11:09:24.000Z</time>
      </trkpt>
      <trkpt lat="44.42871" lon="1.90793">
        <ele>377</ele>
        <time>2007-03-11T11:09:34.000Z</time>
      </trkpt>
      <trkpt lat="44.42884" lon="1.9076">
        <ele>380</ele>
        <time>2007-03-11T11:09:53.000Z</time>
      </trkpt>
      <trkpt lat="44.42892" lon="1.90718">
        <ele>381</ele>
        <time>2007-03-11T11:10:12.000Z</time>
      </trkpt>
      <trkpt lat="44.42894" lon="1.90701">
        <ele>382</ele>
        <time>2007-03-11T11:10:19.000Z</time>
      </trkpt>
      <trkpt lat="44.42893" lon="1.90692">
        <ele>383</ele>
        <time>2007-03-11T11:10:23.000Z</time>
      </trkpt>
      <trkpt lat="44.42902" lon="1.9065">
        <ele>385</ele>
        <time>2007-03-11T11:10:39.000Z</time>
      </trkpt>
      <trkpt lat="44.42877" lon="1.90605">
        <ele>385</ele>
        <time>2007-03-11T11:10:55.000Z</time>
      </trkpt>
      <trkpt lat="44.4285" lon="1.90548">
        <ele>388</ele>
        <time>2007-03-11T11:11:13.000Z</time>
      </trkpt>
      <trkpt lat="44.42844" lon="1.9053">
        <ele>388</ele>
        <time>2007-03-11T11:11:25.000Z</time>
      </trkpt>
      <trkpt lat="44.42839" lon="1.9048">
        <ele>391</ele>
        <time>2007-03-11T11:11:38.000Z</time>
      </trkpt>
      <trkpt lat="44.4284" lon="1.90475">
        <ele>391</ele>
        <time>2007-03-11T11:11:40.000Z</time>
      </trkpt>
      <trkpt lat="44.42833" lon="1.90467">
        <ele>390</ele>
        <time>2007-03-11T11:11:44.000Z</time>
      </trkpt>
      <trkpt lat="44.42786" lon="1.90446">
        <ele>389</ele>
        <time>2007-03-11T11:11:59.000Z</time>
      </trkpt>
      <trkpt lat="44.42736" lon="1.90426">
        <ele>385</ele>
        <time>2007-03-11T11:12:08.000Z</time>
      </trkpt>
      <trkpt lat="44.42647" lon="1.90393">
        <ele>382</ele>
        <time>2007-03-11T11:12:23.000Z</time>
      </trkpt>
      <trkpt lat="44.42636" lon="1.90391">
        <ele>381</ele>
        <time>2007-03-11T11:12:25.000Z</time>
      </trkpt>
      <trkpt lat="44.4256" lon="1.90383">
        <ele>378</ele>
        <time>2007-03-11T11:12:38.000Z</time>
      </trkpt>
      <trkpt lat="44.42516" lon="1.90381">
        <ele>377</ele>
        <time>2007-03-11T11:12:46.000Z</time>
      </trkpt>
      <trkpt lat="44.42502" lon="1.90367">
        <ele>376</ele>
        <time>2007-03-11T11:12:49.000Z</time>
      </trkpt>
      <trkpt lat="44.42499" lon="1.90362">
        <ele>375</ele>
        <time>2007-03-11T11:12:50.000Z</time>
      </trkpt>
      <trkpt lat="44.42488" lon="1.90353">
        <ele>372</ele>
        <time>2007-03-11T11:12:53.000Z</time>
      </trkpt>
      <trkpt lat="44.42477" lon="1.90356">
        <ele>371</ele>
        <time>2007-03-11T11:12:56.000Z</time>
      </trkpt>
      <trkpt lat="44.42467" lon="1.90362">
        <ele>371</ele>
        <time>2007-03-11T11:12:58.000Z</time>
      </trkpt>
      <trkpt lat="44.42418" lon="1.9037">
        <ele>368</ele>
        <time>2007-03-11T11:13:05.000Z</time>
      </trkpt>
      <trkpt lat="44.42395" lon="1.90374">
        <ele>367</ele>
        <time>2007-03-11T11:13:08.000Z</time>
      </trkpt>
      <trkpt lat="44.42363" lon="1.90371">
        <ele>364</ele>
        <time>2007-03-11T11:13:12.000Z</time>
      </trkpt>
      <trkpt lat="44.42314" lon="1.90374">
        <ele>363</ele>
        <time>2007-03-11T11:13:18.000Z</time>
      </trkpt>
      <trkpt lat="44.42222" lon="1.9041">
        <ele>362</ele>
        <time>2007-03-11T11:13:33.000Z</time>
      </trkpt>
      <trkpt lat="44.42138" lon="1.9043">
        <ele>359</ele>
        <time>2007-03-11T11:13:46.000Z</time>
      </trkpt>
      <trkpt lat="44.42027" lon="1.90434">
        <ele>358</ele>
        <time>2007-03-11T11:14:04.000Z</time>
      </trkpt>
      <trkpt lat="44.41939" lon="1.90427">
        <ele>359</ele>
        <time>2007-03-11T11:14:20.000Z</time>
      </trkpt>
      <trkpt lat="44.41915" lon="1.90418">
        <ele>359</ele>
        <time>2007-03-11T11:14:25.000Z</time>
      </trkpt>
      <trkpt lat="44.41874" lon="1.90415">
        <ele>360</ele>
        <time>2007-03-11T11:14:34.000Z</time>
      </trkpt>
      <trkpt lat="44.41814" lon="1.90417">
        <ele>361</ele>
        <time>2007-03-11T11:14:47.000Z</time>
      </trkpt>
      <trkpt lat="44.41757" lon="1.90436">
        <ele>363</ele>
        <time>2007-03-11T11:15:02.000Z</time>
      </trkpt>
      <trkpt lat="44.41702" lon="1.90448">
        <ele>365</ele>
        <time>2007-03-11T11:15:18.000Z</time>
      </trkpt>
      <trkpt lat="44.41631" lon="1.90443">
        <ele>368</ele>
        <time>2007-03-11T11:15:39.000Z</time>
      </trkpt>
      <trkpt lat="44.41564" lon="1.90454">
        <ele>369</ele>
        <time>2007-03-11T11:15:57.000Z</time>
      </trkpt>
      <trkpt lat="44.4148" lon="1.90472">
        <ele>370</ele>
        <time>2007-03-11T11:16:20.000Z</time>
      </trkpt>
      <trkpt lat="44.41477" lon="1.90473">
        <ele>370</ele>
        <time>2007-03-11T11:16:21.000Z</time>
      </trkpt>
      <trkpt lat="44.41363" lon="1.90438">
        <ele>363</ele>
        <time>2007-03-11T11:16:45.000Z</time>
      </trkpt>
      <trkpt lat="44.41357" lon="1.90436">
        <ele>363</ele>
        <time>2007-03-11T11:16:46.000Z</time>
      </trkpt>
      <trkpt lat="44.41312" lon="1.90418">
        <ele>359</ele>
        <time>2007-03-11T11:16:53.000Z</time>
      </trkpt>
      <trkpt lat="44.41283" lon="1.90404">
        <ele>356</ele>
        <time>2007-03-11T11:16:57.000Z</time>
      </trkpt>
      <trkpt lat="44.41228" lon="1.90382">
        <ele>353</ele>
        <time>2007-03-11T11:17:04.000Z</time>
      </trkpt>
      <trkpt lat="44.41211" lon="1.90376">
        <ele>352</ele>
        <time>2007-03-11T11:17:06.000Z</time>
      </trkpt>
      <trkpt lat="44.41104" lon="1.90335">
        <ele>349</ele>
        <time>2007-03-11T11:17:19.000Z</time>
      </trkpt>
      <trkpt lat="44.41053" lon="1.90319">
        <ele>348</ele>
        <time>2007-03-11T11:17:26.000Z</time>
      </trkpt>
      <trkpt lat="44.41036" lon="1.90338">
        <ele>347</ele>
        <time>2007-03-11T11:17:31.000Z</time>
      </trkpt>
      <trkpt lat="44.41034" lon="1.9034">
        <ele>348</ele>
        <time>2007-03-11T11:17:41.000Z</time>
      </trkpt>
      <trkpt lat="44.4103" lon="1.90339">
        <ele>347</ele>
        <time>2007-03-11T11:18:18.000Z</time>
      </trkpt>
      <trkpt lat="44.4102" lon="1.90367">
        <ele>347</ele>
        <time>2007-03-11T11:19:06.000Z</time>
      </trkpt>
      <trkpt lat="44.40998" lon="1.90421">
        <ele>344</ele>
        <time>2007-03-11T11:19:15.000Z</time>
      </trkpt>
      <trkpt lat="44.40968" lon="1.90493">
        <ele>346</ele>
        <time>2007-03-11T11:19:29.000Z</time>
      </trkpt>
      <trkpt lat="44.40971" lon="1.90497">
        <ele>346</ele>
        <time>2007-03-11T11:19:37.000Z</time>
      </trkpt>
      <trkpt lat="44.40972" lon="1.90499">
        <ele>345</ele>
        <time>2007-03-11T11:20:14.000Z</time>
      </trkpt>
      <trkpt lat="44.40972" lon="1.905">
        <ele>347</ele>
        <time>2007-03-11T11:23:22.000Z</time>
      </trkpt>
      <trkpt lat="44.40976" lon="1.90503">
        <ele>347</ele>
        <time>2007-03-11T11:23:29.000Z</time>
      </trkpt>
      <trkpt lat="44.41005" lon="1.90525">
        <ele>348</ele>
        <time>2007-03-11T11:23:46.000Z</time>
      </trkpt>
      <trkpt lat="44.41007" lon="1.9053">
        <ele>347</ele>
        <time>2007-03-11T11:23:50.000Z</time>
      </trkpt>
      <trkpt lat="44.41007" lon="1.90541">
        <ele>347</ele>
        <time>2007-03-11T11:23:54.000Z</time>
      </trkpt>
      <trkpt lat="44.41023" lon="1.90598">
        <ele>348</ele>
        <time>2007-03-11T11:24:11.000Z</time>
      </trkpt>
      <trkpt lat="44.41036" lon="1.90626">
        <ele>349</ele>
        <time>2007-03-11T11:24:24.000Z</time>
      </trkpt>
      <trkpt lat="44.41042" lon="1.90657">
        <ele>351</ele>
        <time>2007-03-11T11:24:40.000Z</time>
      </trkpt>
      <trkpt lat="44.41067" lon="1.90652">
        <ele>352</ele>
        <time>2007-03-11T11:24:56.000Z</time>
      </trkpt>
      <trkpt lat="44.41076" lon="1.90654">
        <ele>351</ele>
        <time>2007-03-11T11:25:01.000Z</time>
      </trkpt>
      <trkpt lat="44.41081" lon="1.90658">
        <ele>351</ele>
        <time>2007-03-11T11:25:03.000Z</time>
      </trkpt>
      <trkpt lat="44.41127" lon="1.90633">
        <ele>352</ele>
        <time>2007-03-11T11:25:23.000Z</time>
      </trkpt>
      <trkpt lat="44.41159" lon="1.90627">
        <ele>353</ele>
        <time>2007-03-11T11:25:40.000Z</time>
      </trkpt>
      <trkpt lat="44.41197" lon="1.90678">
        <ele>354</ele>
        <time>2007-03-11T11:25:54.000Z</time>
      </trkpt>
      <trkpt lat="44.41251" lon="1.90742">
        <ele>358</ele>
        <time>2007-03-11T11:26:16.000Z</time>
      </trkpt>
      <trkpt lat="44.41294" lon="1.90787">
        <ele>357</ele>
        <time>2007-03-11T11:26:35.000Z</time>
      </trkpt>
      <trkpt lat="44.41321" lon="1.90779">
        <ele>356</ele>
        <time>2007-03-11T11:26:40.000Z</time>
      </trkpt>
      <trkpt lat="44.41359" lon="1.90791">
        <ele>350</ele>
        <time>2007-03-11T11:26:47.000Z</time>
      </trkpt>
      <trkpt lat="44.41386" lon="1.90813">
        <ele>347</ele>
        <time>2007-03-11T11:26:51.000Z</time>
      </trkpt>
      <trkpt lat="44.41423" lon="1.90845">
        <ele>345</ele>
        <time>2007-03-11T11:26:56.000Z</time>
      </trkpt>
      <trkpt lat="44.41436" lon="1.9086">
        <ele>343</ele>
        <time>2007-03-11T11:26:58.000Z</time>
      </trkpt>
      <trkpt lat="44.41455" lon="1.9092">
        <ele>344</ele>
        <time>2007-03-11T11:27:04.000Z</time>
      </trkpt>
      <trkpt lat="44.41468" lon="1.90957">
        <ele>346</ele>
        <time>2007-03-11T11:27:09.000Z</time>
      </trkpt>
      <trkpt lat="44.4151" lon="1.90976">
        <ele>348</ele>
        <time>2007-03-11T11:27:23.000Z</time>
      </trkpt>
      <trkpt lat="44.41514" lon="1.90979">
        <ele>348</ele>
        <time>2007-03-11T11:27:26.000Z</time>
      </trkpt>
      <trkpt lat="44.41493" lon="1.91008">
        <ele>347</ele>
        <time>2007-03-11T11:27:40.000Z</time>
      </trkpt>
      <trkpt lat="44.4145" lon="1.91085">
        <ele>347</ele>
        <time>2007-03-11T11:27:59.000Z</time>
      </trkpt>
      <trkpt lat="44.41392" lon="1.91153">
        <ele>349</ele>
        <time>2007-03-11T11:28:19.000Z</time>
      </trkpt>
      <trkpt lat="44.41389" lon="1.91155">
        <ele>349</ele>
        <time>2007-03-11T11:28:20.000Z</time>
      </trkpt>
      <trkpt lat="44.41366" lon="1.91149">
        <ele>349</ele>
        <time>2007-03-11T11:28:26.000Z</time>
      </trkpt>
      <trkpt lat="44.41357" lon="1.91145">
        <ele>349</ele>
        <time>2007-03-11T11:28:28.000Z</time>
      </trkpt>
      <trkpt lat="44.4135" lon="1.91147">
        <ele>350</ele>
        <time>2007-03-11T11:28:30.000Z</time>
      </trkpt>
      <trkpt lat="44.41327" lon="1.9117">
        <ele>351</ele>
        <time>2007-03-11T11:28:40.000Z</time>
      </trkpt>
      <trkpt lat="44.41308" lon="1.91202">
        <ele>354</ele>
        <time>2007-03-11T11:28:53.000Z</time>
      </trkpt>
      <trkpt lat="44.41288" lon="1.91229">
        <ele>358</ele>
        <time>2007-03-11T11:29:06.000Z</time>
      </trkpt>
      <trkpt lat="44.41267" lon="1.91274">
        <ele>361</ele>
        <time>2007-03-11T11:29:25.000Z</time>
      </trkpt>
      <trkpt lat="44.41251" lon="1.9131">
        <ele>364</ele>
        <time>2007-03-11T11:29:39.000Z</time>
      </trkpt>
      <trkpt lat="44.41226" lon="1.91359">
        <ele>366</ele>
        <time>2007-03-11T11:29:57.000Z</time>
      </trkpt>
      <trkpt lat="44.41204" lon="1.91353">
        <ele>365</ele>
        <time>2007-03-11T11:30:07.000Z</time>
      </trkpt>
      <trkpt lat="44.41177" lon="1.91345">
        <ele>365</ele>
        <time>2007-03-11T11:30:18.000Z</time>
      </trkpt>
      <trkpt lat="44.41142" lon="1.91372">
        <ele>364</ele>
        <time>2007-03-11T11:30:36.000Z</time>
      </trkpt>
      <trkpt lat="44.41093" lon="1.91368">
        <ele>364</ele>
        <time>2007-03-11T11:31:00.000Z</time>
      </trkpt>
      <trkpt lat="44.41084" lon="1.91363">
        <ele>364</ele>
        <time>2007-03-11T11:31:04.000Z</time>
      </trkpt>
      <trkpt lat="44.40984" lon="1.91395">
        <ele>359</ele>
        <time>2007-03-11T11:31:32.000Z</time>
      </trkpt>
      <trkpt lat="44.40958" lon="1.91423">
        <ele>356</ele>
        <time>2007-03-11T11:31:38.000Z</time>
      </trkpt>
      <trkpt lat="44.40936" lon="1.91462">
        <ele>354</ele>
        <time>2007-03-11T11:31:43.000Z</time>
      </trkpt>
      <trkpt lat="44.40888" lon="1.91485">
        <ele>351</ele>
        <time>2007-03-11T11:31:51.000Z</time>
      </trkpt>
      <trkpt lat="44.40875" lon="1.91487">
        <ele>351</ele>
        <time>2007-03-11T11:31:53.000Z</time>
      </trkpt>
      <trkpt lat="44.40854" lon="1.91502">
        <ele>351</ele>
        <time>2007-03-11T11:31:57.000Z</time>
      </trkpt>
      <trkpt lat="44.4084" lon="1.91506">
        <ele>351</ele>
        <time>2007-03-11T11:32:00.000Z</time>
      </trkpt>
      <trkpt lat="44.40813" lon="1.91505">
        <ele>349</ele>
        <time>2007-03-11T11:32:05.000Z</time>
      </trkpt>
      <trkpt lat="44.40807" lon="1.91506">
        <ele>349</ele>
        <time>2007-03-11T11:32:06.000Z</time>
      </trkpt>
      <trkpt lat="44.4074" lon="1.91551">
        <ele>346</ele>
        <time>2007-03-11T11:32:19.000Z</time>
      </trkpt>
      <trkpt lat="44.40671" lon="1.91606">
        <ele>347</ele>
        <time>2007-03-11T11:32:36.000Z</time>
      </trkpt>
      <trkpt lat="44.40672" lon="1.9162">
        <ele>347</ele>
        <time>2007-03-11T11:32:41.000Z</time>
      </trkpt>
      <trkpt lat="44.40699" lon="1.91678">
        <ele>347</ele>
        <time>2007-03-11T11:32:55.000Z</time>
      </trkpt>
      <trkpt lat="44.40705" lon="1.91692">
        <ele>346</ele>
        <time>2007-03-11T11:32:57.000Z</time>
      </trkpt>
      <trkpt lat="44.40736" lon="1.91752">
        <ele>343</ele>
        <time>2007-03-11T11:33:05.000Z</time>
      </trkpt>
      <trkpt lat="44.40779" lon="1.91829">
        <ele>344</ele>
        <time>2007-03-11T11:33:16.000Z</time>
      </trkpt>
      <trkpt lat="44.40778" lon="1.91862">
        <ele>345</ele>
        <time>2007-03-11T11:33:21.000Z</time>
      </trkpt>
      <trkpt lat="44.40718" lon="1.91949">
        <ele>343</ele>
        <time>2007-03-11T11:33:37.000Z</time>
      </trkpt>
      <trkpt lat="44.40656" lon="1.9204">
        <ele>344</ele>
        <time>2007-03-11T11:33:54.000Z</time>
      </trkpt>
      <trkpt lat="44.40646" lon="1.92046">
        <ele>345</ele>
        <time>2007-03-11T11:33:57.000Z</time>
      </trkpt>
      <trkpt lat="44.40591" lon="1.92051">
        <ele>344</ele>
        <time>2007-03-11T11:34:09.000Z</time>
      </trkpt>
      <trkpt lat="44.40525" lon="1.92062">
        <ele>345</ele>
        <time>2007-03-11T11:34:27.000Z</time>
      </trkpt>
      <trkpt lat="44.40461" lon="1.92068">
        <ele>347</ele>
        <time>2007-03-11T11:34:45.000Z</time>
      </trkpt>
      <trkpt lat="44.40379" lon="1.92063">
        <ele>349</ele>
        <time>2007-03-11T11:35:09.000Z</time>
      </trkpt>
      <trkpt lat="44.40316" lon="1.92081">
        <ele>349</ele>
        <time>2007-03-11T11:35:27.000Z</time>
      </trkpt>
      <trkpt lat="44.40292" lon="1.92096">
        <ele>346</ele>
        <time>2007-03-11T11:35:33.000Z</time>
      </trkpt>
      <trkpt lat="44.40186" lon="1.92146">
        <ele>348</ele>
        <time>2007-03-11T11:35:56.000Z</time>
      </trkpt>
      <trkpt lat="44.40137" lon="1.92169">
        <ele>351</ele>
        <time>2007-03-11T11:36:11.000Z</time>
      </trkpt>
      <trkpt lat="44.40093" lon="1.92195">
        <ele>354</ele>
        <time>2007-03-11T11:36:32.000Z</time>
      </trkpt>
      <trkpt lat="44.40092" lon="1.92196">
        <ele>354</ele>
        <time>2007-03-11T11:36:33.000Z</time>
      </trkpt>
      <trkpt lat="44.40051" lon="1.92208">
        <ele>355</ele>
        <time>2007-03-11T11:36:52.000Z</time>
      </trkpt>
      <trkpt lat="44.39988" lon="1.92215">
        <ele>359</ele>
        <time>2007-03-11T11:37:17.000Z</time>
      </trkpt>
      <trkpt lat="44.39933" lon="1.92203">
        <ele>358</ele>
        <time>2007-03-11T11:37:34.000Z</time>
      </trkpt>
      <trkpt lat="44.39913" lon="1.92208">
        <ele>357</ele>
        <time>2007-03-11T11:37:37.000Z</time>
      </trkpt>
      <trkpt lat="44.39902" lon="1.92216">
        <ele>356</ele>
        <time>2007-03-11T11:37:39.000Z</time>
      </trkpt>
      <trkpt lat="44.39886" lon="1.92234">
        <ele>355</ele>
        <time>2007-03-11T11:37:42.000Z</time>
      </trkpt>
      <trkpt lat="44.3986" lon="1.92272">
        <ele>354</ele>
        <time>2007-03-11T11:37:48.000Z</time>
      </trkpt>
      <trkpt lat="44.39837" lon="1.92311">
        <ele>354</ele>
        <time>2007-03-11T11:37:54.000Z</time>
      </trkpt>
      <trkpt lat="44.39826" lon="1.92333">
        <ele>355</ele>
        <time>2007-03-11T11:37:58.000Z</time>
      </trkpt>
      <trkpt lat="44.3982" lon="1.92342">
        <ele>355</ele>
        <time>2007-03-11T11:38:00.000Z</time>
      </trkpt>
      <trkpt lat="44.39812" lon="1.92362">
        <ele>356</ele>
        <time>2007-03-11T11:38:04.000Z</time>
      </trkpt>
      <trkpt lat="44.39809" lon="1.92373">
        <ele>356</ele>
        <time>2007-03-11T11:38:06.000Z</time>
      </trkpt>
      <trkpt lat="44.39776" lon="1.92466">
        <ele>359</ele>
        <time>2007-03-11T11:38:24.000Z</time>
      </trkpt>
      <trkpt lat="44.39769" lon="1.92496">
        <ele>360</ele>
        <time>2007-03-11T11:38:30.000Z</time>
      </trkpt>
      <trkpt lat="44.39834" lon="1.92533">
        <ele>361</ele>
        <time>2007-03-11T11:38:48.000Z</time>
      </trkpt>
      <trkpt lat="44.3985" lon="1.92561">
        <ele>360</ele>
        <time>2007-03-11T11:38:53.000Z</time>
      </trkpt>
      <trkpt lat="44.39899" lon="1.92716">
        <ele>361</ele>
        <time>2007-03-11T11:39:16.000Z</time>
      </trkpt>
      <trkpt lat="44.39935" lon="1.92841">
        <ele>362</ele>
        <time>2007-03-11T11:39:36.000Z</time>
      </trkpt>
      <trkpt lat="44.39936" lon="1.92854">
        <ele>362</ele>
        <time>2007-03-11T11:39:38.000Z</time>
      </trkpt>
      <trkpt lat="44.39896" lon="1.92982">
        <ele>363</ele>
        <time>2007-03-11T11:40:00.000Z</time>
      </trkpt>
      <trkpt lat="44.39849" lon="1.9309">
        <ele>364</ele>
        <time>2007-03-11T11:40:21.000Z</time>
      </trkpt>
      <trkpt lat="44.39814" lon="1.93178">
        <ele>365</ele>
        <time>2007-03-11T11:40:39.000Z</time>
      </trkpt>
      <trkpt lat="44.3977" lon="1.93286">
        <ele>365</ele>
        <time>2007-03-11T11:40:57.000Z</time>
      </trkpt>
      <trkpt lat="44.39718" lon="1.9341">
        <ele>366</ele>
        <time>2007-03-11T11:41:17.000Z</time>
      </trkpt>
      <trkpt lat="44.39694" lon="1.93465">
        <ele>368</ele>
        <time>2007-03-11T11:41:27.000Z</time>
      </trkpt>
      <trkpt lat="44.39675" lon="1.93461">
        <ele>369</ele>
        <time>2007-03-11T11:41:34.000Z</time>
      </trkpt>
      <trkpt lat="44.39643" lon="1.93435">
        <ele>370</ele>
        <time>2007-03-11T11:41:51.000Z</time>
      </trkpt>
      <trkpt lat="44.39615" lon="1.93414">
        <ele>373</ele>
        <time>2007-03-11T11:42:08.000Z</time>
      </trkpt>
      <trkpt lat="44.39586" lon="1.93391">
        <ele>373</ele>
        <time>2007-03-11T11:42:26.000Z</time>
      </trkpt>
      <trkpt lat="44.39585" lon="1.9339">
        <ele>375</ele>
        <time>2007-03-11T11:42:44.000Z</time>
      </trkpt>
      <trkpt lat="44.39571" lon="1.93385">
        <ele>374</ele>
        <time>2007-03-11T11:44:05.000Z</time>
      </trkpt>
      <trkpt lat="44.39504" lon="1.93391">
        <ele>376</ele>
        <time>2007-03-11T11:44:22.000Z</time>
      </trkpt>
      <trkpt lat="44.39475" lon="1.93415">
        <ele>378</ele>
        <time>2007-03-11T11:44:31.000Z</time>
      </trkpt>
      <trkpt lat="44.39405" lon="1.93481">
        <ele>379</ele>
        <time>2007-03-11T11:44:54.000Z</time>
      </trkpt>
      <trkpt lat="44.39355" lon="1.93528">
        <ele>379</ele>
        <time>2007-03-11T11:45:12.000Z</time>
      </trkpt>
      <trkpt lat="44.39305" lon="1.93582">
        <ele>380</ele>
        <time>2007-03-11T11:45:32.000Z</time>
      </trkpt>
      <trkpt lat="44.39254" lon="1.93651">
        <ele>382</ele>
        <time>2007-03-11T11:45:54.000Z</time>
      </trkpt>
      <trkpt lat="44.39226" lon="1.9371">
        <ele>385</ele>
        <time>2007-03-11T11:46:11.000Z</time>
      </trkpt>
      <trkpt lat="44.39214" lon="1.93748">
        <ele>389</ele>
        <time>2007-03-11T11:46:25.000Z</time>
      </trkpt>
      <trkpt lat="44.39204" lon="1.93766">
        <ele>389</ele>
        <time>2007-03-11T11:46:34.000Z</time>
      </trkpt>
      <trkpt lat="44.39201" lon="1.93772">
        <ele>389</ele>
        <time>2007-03-11T11:46:38.000Z</time>
      </trkpt>
      <trkpt lat="44.39193" lon="1.93784">
        <ele>389</ele>
        <time>2007-03-11T11:46:52.000Z</time>
      </trkpt>
      <trkpt lat="44.39157" lon="1.93817">
        <ele>391</ele>
        <time>2007-03-11T11:47:06.000Z</time>
      </trkpt>
      <trkpt lat="44.39115" lon="1.9386">
        <ele>391</ele>
        <time>2007-03-11T11:47:21.000Z</time>
      </trkpt>
      <trkpt lat="44.39074" lon="1.93893">
        <ele>391</ele>
        <time>2007-03-11T11:47:34.000Z</time>
      </trkpt>
      <trkpt lat="44.39079" lon="1.93921">
        <ele>390</ele>
        <time>2007-03-11T11:47:40.000Z</time>
      </trkpt>
      <trkpt lat="44.39083" lon="1.93947">
        <ele>389</ele>
        <time>2007-03-11T11:47:43.000Z</time>
      </trkpt>
      <trkpt lat="44.39075" lon="1.94022">
        <ele>385</ele>
        <time>2007-03-11T11:47:50.000Z</time>
      </trkpt>
      <trkpt lat="44.39075" lon="1.94033">
        <ele>386</ele>
        <time>2007-03-11T11:47:51.000Z</time>
      </trkpt>
      <trkpt lat="44.39068" lon="1.94104">
        <ele>382</ele>
        <time>2007-03-11T11:47:57.000Z</time>
      </trkpt>
      <trkpt lat="44.39069" lon="1.94114">
        <ele>377</ele>
        <time>2007-03-11T16:55:21.000Z</time>
      </trkpt>
      <trkpt lat="44.39052" lon="1.94315">
        <ele>378</ele>
        <time>2007-03-11T16:55:21.000Z</time>
      </trkpt>
      <trkpt lat="44.38935" lon="1.94322">
        <ele>377</ele>
        <time>2007-03-11T16:55:21.000Z</time>
      </trkpt>
      <trkpt lat="44.38796" lon="1.94405">
        <ele>382</ele>
        <time>2007-03-11T16:55:21.000Z</time>
      </trkpt>
      <trkpt lat="44.38783" lon="1.94405">
        <ele>383</ele>
        <time>2007-03-11T16:55:21.000Z</time>
      </trkpt>
      <trkpt lat="44.38778" lon="1.94431">
        <ele>392</ele>
        <time>2007-03-11T11:49:32.000Z</time>
      </trkpt>
      <trkpt lat="44.38759" lon="1.94441">
        <ele>389</ele>
        <time>2007-03-11T11:49:35.000Z</time>
      </trkpt>
      <trkpt lat="44.38695" lon="1.94523">
        <ele>386</ele>
        <time>2007-03-11T11:49:47.000Z</time>
      </trkpt>
      <trkpt lat="44.38664" lon="1.94564">
        <ele>384</ele>
        <time>2007-03-11T11:49:53.000Z</time>
      </trkpt>
      <trkpt lat="44.38654" lon="1.94575">
        <ele>383</ele>
        <time>2007-03-11T11:49:55.000Z</time>
      </trkpt>
      <trkpt lat="44.38607" lon="1.94598">
        <ele>381</ele>
        <time>2007-03-11T11:50:02.000Z</time>
      </trkpt>
      <trkpt lat="44.38582" lon="1.94599">
        <ele>378</ele>
        <time>2007-03-11T11:50:05.000Z</time>
      </trkpt>
      <trkpt lat="44.38557" lon="1.94603">
        <ele>375</ele>
        <time>2007-03-11T11:50:08.000Z</time>
      </trkpt>
      <trkpt lat="44.38529" lon="1.94596">
        <ele>373</ele>
        <time>2007-03-11T11:50:16.000Z</time>
      </trkpt>
      <trkpt lat="44.38524" lon="1.94591">
        <ele>373</ele>
        <time>2007-03-11T11:50:20.000Z</time>
      </trkpt>
      <trkpt lat="44.38503" lon="1.94583">
        <ele>373</ele>
        <time>2007-03-11T11:50:36.000Z</time>
      </trkpt>
      <trkpt lat="44.3848" lon="1.94579">
        <ele>375</ele>
        <time>2007-03-11T11:50:46.000Z</time>
      </trkpt>
      <trkpt lat="44.3842" lon="1.94583">
        <ele>375</ele>
        <time>2007-03-11T11:51:03.000Z</time>
      </trkpt>
      <trkpt lat="44.38392" lon="1.94584">
        <ele>373</ele>
        <time>2007-03-11T11:51:08.000Z</time>
      </trkpt>
      <trkpt lat="44.38314" lon="1.94588">
        <ele>369</ele>
        <time>2007-03-11T11:51:20.000Z</time>
      </trkpt>
      <trkpt lat="44.38295" lon="1.94588">
        <ele>369</ele>
        <time>2007-03-11T11:51:23.000Z</time>
      </trkpt>
      <trkpt lat="44.38272" lon="1.94598">
        <ele>368</ele>
        <time>2007-03-11T11:51:27.000Z</time>
      </trkpt>
      <trkpt lat="44.38226" lon="1.94631">
        <ele>369</ele>
        <time>2007-03-11T11:51:36.000Z</time>
      </trkpt>
      <trkpt lat="44.38194" lon="1.94669">
        <ele>370</ele>
        <time>2007-03-11T11:51:43.000Z</time>
      </trkpt>
      <trkpt lat="44.38186" lon="1.94679">
        <ele>370</ele>
        <time>2007-03-11T11:51:45.000Z</time>
      </trkpt>
      <trkpt lat="44.38133" lon="1.9477">
        <ele>372</ele>
        <time>2007-03-11T11:52:01.000Z</time>
      </trkpt>
      <trkpt lat="44.38119" lon="1.94817">
        <ele>373</ele>
        <time>2007-03-11T11:52:09.000Z</time>
      </trkpt>
      <trkpt lat="44.38136" lon="1.94836">
        <ele>375</ele>
        <time>2007-03-11T11:52:16.000Z</time>
      </trkpt>
      <trkpt lat="44.38185" lon="1.94852">
        <ele>377</ele>
        <time>2007-03-11T11:52:32.000Z</time>
      </trkpt>
      <trkpt lat="44.3823" lon="1.94853">
        <ele>380</ele>
        <time>2007-03-11T11:52:47.000Z</time>
      </trkpt>
      <trkpt lat="44.38281" lon="1.9486">
        <ele>381</ele>
        <time>2007-03-11T11:53:04.000Z</time>
      </trkpt>
      <trkpt lat="44.38331" lon="1.94867">
        <ele>381</ele>
        <time>2007-03-11T11:53:20.000Z</time>
      </trkpt>
      <trkpt lat="44.3838" lon="1.94868">
        <ele>381</ele>
        <time>2007-03-11T11:53:35.000Z</time>
      </trkpt>
      <trkpt lat="44.38427" lon="1.94878">
        <ele>384</ele>
        <time>2007-03-11T11:53:49.000Z</time>
      </trkpt>
      <trkpt lat="44.38467" lon="1.94908">
        <ele>386</ele>
        <time>2007-03-11T11:54:04.000Z</time>
      </trkpt>
      <trkpt lat="44.38499" lon="1.94948">
        <ele>389</ele>
        <time>2007-03-11T11:54:20.000Z</time>
      </trkpt>
      <trkpt lat="44.38506" lon="1.94994">
        <ele>391</ele>
        <time>2007-03-11T11:54:33.000Z</time>
      </trkpt>
      <trkpt lat="44.38518" lon="1.95046">
        <ele>394</ele>
        <time>2007-03-11T11:54:49.000Z</time>
      </trkpt>
      <trkpt lat="44.38527" lon="1.95074">
        <ele>394</ele>
        <time>2007-03-11T11:55:04.000Z</time>
      </trkpt>
      <trkpt lat="44.3854" lon="1.95108">
        <ele>395</ele>
        <time>2007-03-11T11:55:21.000Z</time>
      </trkpt>
      <trkpt lat="44.3856" lon="1.95142">
        <ele>395</ele>
        <time>2007-03-11T11:55:36.000Z</time>
      </trkpt>
      <trkpt lat="44.38582" lon="1.95186">
        <ele>396</ele>
        <time>2007-03-11T11:55:49.000Z</time>
      </trkpt>
      <trkpt lat="44.38617" lon="1.95271">
        <ele>396</ele>
        <time>2007-03-11T11:56:10.000Z</time>
      </trkpt>
      <trkpt lat="44.38647" lon="1.95345">
        <ele>397</ele>
        <time>2007-03-11T11:56:28.000Z</time>
      </trkpt>
      <trkpt lat="44.38618" lon="1.9542">
        <ele>398</ele>
        <time>2007-03-11T11:56:45.000Z</time>
      </trkpt>
      <trkpt lat="44.38611" lon="1.95435">
        <ele>400</ele>
        <time>2007-03-11T11:56:49.000Z</time>
      </trkpt>
      <trkpt lat="44.38592" lon="1.95478">
        <ele>403</ele>
        <time>2007-03-11T11:57:03.000Z</time>
      </trkpt>
      <trkpt lat="44.38563" lon="1.95541">
        <ele>406</ele>
        <time>2007-03-11T11:57:25.000Z</time>
      </trkpt>
      <trkpt lat="44.38541" lon="1.95598">
        <ele>407</ele>
        <time>2007-03-11T11:57:43.000Z</time>
      </trkpt>
      <trkpt lat="44.38511" lon="1.95673">
        <ele>411</ele>
        <time>2007-03-11T11:58:07.000Z</time>
      </trkpt>
      <trkpt lat="44.3851" lon="1.95676">
        <ele>411</ele>
        <time>2007-03-11T11:58:08.000Z</time>
      </trkpt>
      <trkpt lat="44.38498" lon="1.95712">
        <ele>414</ele>
        <time>2007-03-11T11:58:21.000Z</time>
      </trkpt>
      <trkpt lat="44.38469" lon="1.95778">
        <ele>416</ele>
        <time>2007-03-11T11:58:44.000Z</time>
      </trkpt>
      <trkpt lat="44.38436" lon="1.95823">
        <ele>416</ele>
        <time>2007-03-11T11:59:02.000Z</time>
      </trkpt>
      <trkpt lat="44.38413" lon="1.95842">
        <ele>414</ele>
        <time>2007-03-11T11:59:10.000Z</time>
      </trkpt>
      <trkpt lat="44.38373" lon="1.95871">
        <ele>410</ele>
        <time>2007-03-11T11:59:19.000Z</time>
      </trkpt>
      <trkpt lat="44.38339" lon="1.95891">
        <ele>408</ele>
        <time>2007-03-11T11:59:25.000Z</time>
      </trkpt>
      <trkpt lat="44.38226" lon="1.95924">
        <ele>399</ele>
        <time>2007-03-11T11:59:38.000Z</time>
      </trkpt>
      <trkpt lat="44.38218" lon="1.95927">
        <ele>399</ele>
        <time>2007-03-11T11:59:39.000Z</time>
      </trkpt>
      <trkpt lat="44.38209" lon="1.95932">
        <ele>398</ele>
        <time>2007-03-11T11:59:41.000Z</time>
      </trkpt>
      <trkpt lat="44.38215" lon="1.95944">
        <ele>397</ele>
        <time>2007-03-11T11:59:47.000Z</time>
      </trkpt>
      <trkpt lat="44.38246" lon="1.95955">
        <ele>397</ele>
        <time>2007-03-11T12:00:01.000Z</time>
      </trkpt>
      <trkpt lat="44.38306" lon="1.95959">
        <ele>397</ele>
        <time>2007-03-11T12:00:18.000Z</time>
      </trkpt>
      <trkpt lat="44.3838" lon="1.95965">
        <ele>396</ele>
        <time>2007-03-11T12:00:37.000Z</time>
      </trkpt>
      <trkpt lat="44.38384" lon="1.95966">
        <ele>395</ele>
        <time>2007-03-11T12:00:38.000Z</time>
      </trkpt>
      <trkpt lat="44.38407" lon="1.96004">
        <ele>394</ele>
        <time>2007-03-11T12:00:46.000Z</time>
      </trkpt>
      <trkpt lat="44.38409" lon="1.96029">
        <ele>394</ele>
        <time>2007-03-11T12:00:50.000Z</time>
      </trkpt>
      <trkpt lat="44.38408" lon="1.96042">
        <ele>394</ele>
        <time>2007-03-11T12:00:52.000Z</time>
      </trkpt>
      <trkpt lat="44.38384" lon="1.96156">
        <ele>397</ele>
        <time>2007-03-11T12:01:12.000Z</time>
      </trkpt>
      <trkpt lat="44.3838" lon="1.96186">
        <ele>397</ele>
        <time>2007-03-11T12:01:17.000Z</time>
      </trkpt>
      <trkpt lat="44.38357" lon="1.96227">
        <ele>397</ele>
        <time>2007-03-11T12:01:24.000Z</time>
      </trkpt>
      <trkpt lat="44.38324" lon="1.9628">
        <ele>400</ele>
        <time>2007-03-11T12:01:36.000Z</time>
      </trkpt>
      <trkpt lat="44.3832" lon="1.96293">
        <ele>399</ele>
        <time>2007-03-11T12:01:39.000Z</time>
      </trkpt>
      <trkpt lat="44.38307" lon="1.96293">
        <ele>400</ele>
        <time>2007-03-11T12:01:43.000Z</time>
      </trkpt>
      <trkpt lat="44.38278" lon="1.96275">
        <ele>398</ele>
        <time>2007-03-11T12:01:49.000Z</time>
      </trkpt>
      <trkpt lat="44.38233" lon="1.96274">
        <ele>395</ele>
        <time>2007-03-11T12:01:55.000Z</time>
      </trkpt>
      <trkpt lat="44.38197" lon="1.96289">
        <ele>392</ele>
        <time>2007-03-11T12:01:59.000Z</time>
      </trkpt>
      <trkpt lat="44.38166" lon="1.9632">
        <ele>390</ele>
        <time>2007-03-11T12:02:03.000Z</time>
      </trkpt>
      <trkpt lat="44.38159" lon="1.96329">
        <ele>389</ele>
        <time>2007-03-11T12:02:04.000Z</time>
      </trkpt>
      <trkpt lat="44.38111" lon="1.96344">
        <ele>389</ele>
        <time>2007-03-11T12:02:10.000Z</time>
      </trkpt>
      <trkpt lat="44.38018" lon="1.96333">
        <ele>391</ele>
        <time>2007-03-11T12:02:26.000Z</time>
      </trkpt>
      <trkpt lat="44.38009" lon="1.96333">
        <ele>390</ele>
        <time>2007-03-11T12:02:28.000Z</time>
      </trkpt>
      <trkpt lat="44.37938" lon="1.96358">
        <ele>393</ele>
        <time>2007-03-11T12:02:47.000Z</time>
      </trkpt>
      <trkpt lat="44.37904" lon="1.96382">
        <ele>397</ele>
        <time>2007-03-11T12:02:59.000Z</time>
      </trkpt>
      <trkpt lat="44.37869" lon="1.96424">
        <ele>400</ele>
        <time>2007-03-11T12:03:16.000Z</time>
      </trkpt>
      <trkpt lat="44.37862" lon="1.96433">
        <ele>402</ele>
        <time>2007-03-11T12:03:20.000Z</time>
      </trkpt>
      <trkpt lat="44.37837" lon="1.96456">
        <ele>406</ele>
        <time>2007-03-11T12:03:33.000Z</time>
      </trkpt>
      <trkpt lat="44.37803" lon="1.9648">
        <ele>409</ele>
        <time>2007-03-11T12:03:50.000Z</time>
      </trkpt>
      <trkpt lat="44.3777" lon="1.96505">
        <ele>412</ele>
        <time>2007-03-11T12:04:06.000Z</time>
      </trkpt>
      <trkpt lat="44.37757" lon="1.96549">
        <ele>413</ele>
        <time>2007-03-11T12:04:19.000Z</time>
      </trkpt>
      <trkpt lat="44.37737" lon="1.96629">
        <ele>414</ele>
        <time>2007-03-11T12:04:37.000Z</time>
      </trkpt>
      <trkpt lat="44.37696" lon="1.96723">
        <ele>415</ele>
        <time>2007-03-11T12:04:57.000Z</time>
      </trkpt>
      <trkpt lat="44.37663" lon="1.96805">
        <ele>418</ele>
        <time>2007-03-11T12:05:15.000Z</time>
      </trkpt>
      <trkpt lat="44.37639" lon="1.96864">
        <ele>422</ele>
        <time>2007-03-11T12:05:28.000Z</time>
      </trkpt>
      <trkpt lat="44.37613" lon="1.96914">
        <ele>422</ele>
        <time>2007-03-11T12:05:42.000Z</time>
      </trkpt>
      <trkpt lat="44.37571" lon="1.96948">
        <ele>418</ele>
        <time>2007-03-11T12:05:52.000Z</time>
      </trkpt>
      <trkpt lat="44.37552" lon="1.96957">
        <ele>417</ele>
        <time>2007-03-11T12:05:55.000Z</time>
      </trkpt>
      <trkpt lat="44.37493" lon="1.96967">
        <ele>415</ele>
        <time>2007-03-11T12:06:04.000Z</time>
      </trkpt>
      <trkpt lat="44.37479" lon="1.96978">
        <ele>416</ele>
        <time>2007-03-11T12:06:07.000Z</time>
      </trkpt>
      <trkpt lat="44.37402" lon="1.97049">
        <ele>415</ele>
        <time>2007-03-11T12:06:23.000Z</time>
      </trkpt>
      <trkpt lat="44.37303" lon="1.97122">
        <ele>413</ele>
        <time>2007-03-11T12:06:39.000Z</time>
      </trkpt>
      <trkpt lat="44.37285" lon="1.97133">
        <ele>413</ele>
        <time>2007-03-11T12:06:42.000Z</time>
      </trkpt>
      <trkpt lat="44.37241" lon="1.97121">
        <ele>411</ele>
        <time>2007-03-11T12:06:48.000Z</time>
      </trkpt>
      <trkpt lat="44.37208" lon="1.97119">
        <ele>408</ele>
        <time>2007-03-11T12:06:52.000Z</time>
      </trkpt>
      <trkpt lat="44.37185" lon="1.97128">
        <ele>407</ele>
        <time>2007-03-11T12:06:55.000Z</time>
      </trkpt>
      <trkpt lat="44.37146" lon="1.97164">
        <ele>405</ele>
        <time>2007-03-11T12:07:01.000Z</time>
      </trkpt>
      <trkpt lat="44.37141" lon="1.9719">
        <ele>403</ele>
        <time>2007-03-11T12:07:04.000Z</time>
      </trkpt>
      <trkpt lat="44.37147" lon="1.97224">
        <ele>401</ele>
        <time>2007-03-11T12:07:11.000Z</time>
      </trkpt>
      <trkpt lat="44.37143" lon="1.97225">
        <ele>401</ele>
        <time>2007-03-11T12:07:12.000Z</time>
      </trkpt>
      <trkpt lat="44.37118" lon="1.97228">
        <ele>402</ele>
        <time>2007-03-11T12:07:17.000Z</time>
      </trkpt>
      <trkpt lat="44.3705" lon="1.97206">
        <ele>402</ele>
        <time>2007-03-11T12:07:32.000Z</time>
      </trkpt>
      <trkpt lat="44.37026" lon="1.97202">
        <ele>403</ele>
        <time>2007-03-11T12:07:44.000Z</time>
      </trkpt>
      <trkpt lat="44.37026" lon="1.972">
        <ele>405</ele>
        <time>2007-03-11T12:13:15.000Z</time>
      </trkpt>
      <trkpt lat="44.37016" lon="1.97218">
        <ele>404</ele>
        <time>2007-03-11T12:13:23.000Z</time>
      </trkpt>
      <trkpt lat="44.3699" lon="1.97252">
        <ele>401</ele>
        <time>2007-03-11T12:13:31.000Z</time>
      </trkpt>
      <trkpt lat="44.36958" lon="1.97349">
        <ele>400</ele>
        <time>2007-03-11T12:13:43.000Z</time>
      </trkpt>
      <trkpt lat="44.36928" lon="1.97433">
        <ele>400</ele>
        <time>2007-03-11T12:13:55.000Z</time>
      </trkpt>
      <trkpt lat="44.36873" lon="1.97482">
        <ele>399</ele>
        <time>2007-03-11T12:14:07.000Z</time>
      </trkpt>
      <trkpt lat="44.36868" lon="1.97497">
        <ele>398</ele>
        <time>2007-03-11T12:14:11.000Z</time>
      </trkpt>
      <trkpt lat="44.36895" lon="1.97559">
        <ele>394</ele>
        <time>2007-03-11T12:14:19.000Z</time>
      </trkpt>
      <trkpt lat="44.36904" lon="1.9758">
        <ele>392</ele>
        <time>2007-03-11T12:14:21.000Z</time>
      </trkpt>
      <trkpt lat="44.36921" lon="1.97618">
        <ele>388</ele>
        <time>2007-03-11T12:14:24.000Z</time>
      </trkpt>
      <trkpt lat="44.36933" lon="1.97642">
        <ele>383</ele>
        <time>2007-03-11T12:14:26.000Z</time>
      </trkpt>
      <trkpt lat="44.36946" lon="1.97667">
        <ele>380</ele>
        <time>2007-03-11T12:14:28.000Z</time>
      </trkpt>
      <trkpt lat="44.36971" lon="1.97699">
        <ele>376</ele>
        <time>2007-03-11T12:14:31.000Z</time>
      </trkpt>
      <trkpt lat="44.36988" lon="1.97724">
        <ele>373</ele>
        <time>2007-03-11T12:14:33.000Z</time>
      </trkpt>
      <trkpt lat="44.37005" lon="1.97775">
        <ele>367</ele>
        <time>2007-03-11T12:14:36.000Z</time>
      </trkpt>
      <trkpt lat="44.37014" lon="1.97813">
        <ele>363</ele>
        <time>2007-03-11T12:14:38.000Z</time>
      </trkpt>
      <trkpt lat="44.37032" lon="1.9787">
        <ele>359</ele>
        <time>2007-03-11T12:14:41.000Z</time>
      </trkpt>
      <trkpt lat="44.37054" lon="1.9794">
        <ele>356</ele>
        <time>2007-03-11T12:14:45.000Z</time>
      </trkpt>
      <trkpt lat="44.37061" lon="1.97972">
        <ele>354</ele>
        <time>2007-03-11T12:14:47.000Z</time>
      </trkpt>
      <trkpt lat="44.37084" lon="1.98055">
        <ele>353</ele>
        <time>2007-03-11T12:14:54.000Z</time>
      </trkpt>
      <trkpt lat="44.37114" lon="1.98085">
        <ele>353</ele>
        <time>2007-03-11T12:14:59.000Z</time>
      </trkpt>
      <trkpt lat="44.3713" lon="1.981">
        <ele>353</ele>
        <time>2007-03-11T12:15:02.000Z</time>
      </trkpt>
      <trkpt lat="44.3716" lon="1.98146">
        <ele>353</ele>
        <time>2007-03-11T12:15:09.000Z</time>
      </trkpt>
      <trkpt lat="44.3717" lon="1.98204">
        <ele>352</ele>
        <time>2007-03-11T12:15:15.000Z</time>
      </trkpt>
      <trkpt lat="44.37167" lon="1.98289">
        <ele>353</ele>
        <time>2007-03-11T12:15:24.000Z</time>
      </trkpt>
      <trkpt lat="44.37144" lon="1.98303">
        <ele>353</ele>
        <time>2007-03-11T12:15:29.000Z</time>
      </trkpt>
      <trkpt lat="44.37088" lon="1.98296">
        <ele>350</ele>
        <time>2007-03-11T12:15:36.000Z</time>
      </trkpt>
      <trkpt lat="44.37071" lon="1.98295">
        <ele>349</ele>
        <time>2007-03-11T12:15:38.000Z</time>
      </trkpt>
      <trkpt lat="44.37045" lon="1.98313">
        <ele>348</ele>
        <time>2007-03-11T12:15:42.000Z</time>
      </trkpt>
      <trkpt lat="44.3704" lon="1.98332">
        <ele>348</ele>
        <time>2007-03-11T12:15:44.000Z</time>
      </trkpt>
      <trkpt lat="44.37009" lon="1.98522">
        <ele>347</ele>
        <time>2007-03-11T12:16:02.000Z</time>
      </trkpt>
      <trkpt lat="44.36986" lon="1.98591">
        <ele>347</ele>
        <time>2007-03-11T12:16:09.000Z</time>
      </trkpt>
      <trkpt lat="44.36912" lon="1.98733">
        <ele>344</ele>
        <time>2007-03-11T12:16:25.000Z</time>
      </trkpt>
      <trkpt lat="44.36852" lon="1.98885">
        <ele>343</ele>
        <time>2007-03-11T12:16:41.000Z</time>
      </trkpt>
      <trkpt lat="44.36824" lon="1.9895">
        <ele>342</ele>
        <time>2007-03-11T12:16:48.000Z</time>
      </trkpt>
      <trkpt lat="44.36802" lon="1.99021">
        <ele>339</ele>
        <time>2007-03-11T12:16:55.000Z</time>
      </trkpt>
      <trkpt lat="44.36812" lon="1.99067">
        <ele>339</ele>
        <time>2007-03-11T12:17:00.000Z</time>
      </trkpt>
      <trkpt lat="44.36832" lon="1.99088">
        <ele>343</ele>
        <time>2007-03-11T12:17:07.000Z</time>
      </trkpt>
      <trkpt lat="44.36854" lon="1.99117">
        <ele>347</ele>
        <time>2007-03-11T12:17:18.000Z</time>
      </trkpt>
      <trkpt lat="44.36871" lon="1.99135">
        <ele>350</ele>
        <time>2007-03-11T12:17:26.000Z</time>
      </trkpt>
      <trkpt lat="44.36889" lon="1.99154">
        <ele>352</ele>
        <time>2007-03-11T12:17:35.000Z</time>
      </trkpt>
      <trkpt lat="44.36912" lon="1.99181">
        <ele>356</ele>
        <time>2007-03-11T12:17:47.000Z</time>
      </trkpt>
      <trkpt lat="44.36942" lon="1.99214">
        <ele>359</ele>
        <time>2007-03-11T12:18:02.000Z</time>
      </trkpt>
      <trkpt lat="44.36944" lon="1.99216">
        <ele>360</ele>
        <time>2007-03-11T12:18:03.000Z</time>
      </trkpt>
      <trkpt lat="44.36981" lon="1.99261">
        <ele>361</ele>
        <time>2007-03-11T12:18:22.000Z</time>
      </trkpt>
      <trkpt lat="44.36999" lon="1.99288">
        <ele>358</ele>
        <time>2007-03-11T12:18:28.000Z</time>
      </trkpt>
      <trkpt lat="44.37008" lon="1.99302">
        <ele>357</ele>
        <time>2007-03-11T12:18:30.000Z</time>
      </trkpt>
      <trkpt lat="44.37082" lon="1.99394">
        <ele>357</ele>
        <time>2007-03-11T12:18:45.000Z</time>
      </trkpt>
      <trkpt lat="44.37154" lon="1.99465">
        <ele>357</ele>
        <time>2007-03-11T12:19:03.000Z</time>
      </trkpt>
      <trkpt lat="44.3725" lon="1.99514">
        <ele>353</ele>
        <time>2007-03-11T12:19:23.000Z</time>
      </trkpt>
      <trkpt lat="44.37278" lon="1.99543">
        <ele>350</ele>
        <time>2007-03-11T12:19:28.000Z</time>
      </trkpt>
      <trkpt lat="44.37295" lon="1.99543">
        <ele>349</ele>
        <time>2007-03-11T12:19:30.000Z</time>
      </trkpt>
      <trkpt lat="44.3731" lon="1.99542">
        <ele>349</ele>
        <time>2007-03-11T12:19:32.000Z</time>
      </trkpt>
      <trkpt lat="44.37342" lon="1.99564">
        <ele>349</ele>
        <time>2007-03-11T12:19:38.000Z</time>
      </trkpt>
      <trkpt lat="44.37374" lon="1.99638">
        <ele>349</ele>
        <time>2007-03-11T12:19:48.000Z</time>
      </trkpt>
      <trkpt lat="44.37365" lon="1.99661">
        <ele>349</ele>
        <time>2007-03-11T12:19:52.000Z</time>
      </trkpt>
      <trkpt lat="44.37328" lon="1.99695">
        <ele>345</ele>
        <time>2007-03-11T12:19:58.000Z</time>
      </trkpt>
      <trkpt lat="44.3723" lon="1.99787">
        <ele>341</ele>
        <time>2007-03-11T12:20:12.000Z</time>
      </trkpt>
      <trkpt lat="44.37155" lon="1.99884">
        <ele>340</ele>
        <time>2007-03-11T12:20:26.000Z</time>
      </trkpt>
      <trkpt lat="44.37129" lon="1.99904">
        <ele>339</ele>
        <time>2007-03-11T12:20:30.000Z</time>
      </trkpt>
      <trkpt lat="44.37102" lon="1.99919">
        <ele>339</ele>
        <time>2007-03-11T12:20:34.000Z</time>
      </trkpt>
      <trkpt lat="44.37008" lon="2.00025">
        <ele>335</ele>
        <time>2007-03-11T12:20:49.000Z</time>
      </trkpt>
      <trkpt lat="44.37001" lon="2.00033">
        <ele>336</ele>
        <time>2007-03-11T12:20:50.000Z</time>
      </trkpt>
      <trkpt lat="44.36977" lon="2.00069">
        <ele>333</ele>
        <time>2007-03-11T12:20:54.000Z</time>
      </trkpt>
      <trkpt lat="44.3695" lon="2.00103">
        <ele>331</ele>
        <time>2007-03-11T12:20:58.000Z</time>
      </trkpt>
      <trkpt lat="44.36885" lon="2.00144">
        <ele>328</ele>
        <time>2007-03-11T12:21:06.000Z</time>
      </trkpt>
      <trkpt lat="44.36833" lon="2.00168">
        <ele>325</ele>
        <time>2007-03-11T12:21:12.000Z</time>
      </trkpt>
      <trkpt lat="44.36824" lon="2.00173">
        <ele>325</ele>
        <time>2007-03-11T12:21:13.000Z</time>
      </trkpt>
      <trkpt lat="44.36806" lon="2.00182">
        <ele>323</ele>
        <time>2007-03-11T12:21:15.000Z</time>
      </trkpt>
      <trkpt lat="44.36787" lon="2.00192">
        <ele>321</ele>
        <time>2007-03-11T12:21:17.000Z</time>
      </trkpt>
      <trkpt lat="44.36774" lon="2.00203">
        <ele>319</ele>
        <time>2007-03-11T12:21:19.000Z</time>
      </trkpt>
      <trkpt lat="44.36762" lon="2.00169">
        <ele>316</ele>
        <time>2007-03-11T12:21:25.000Z</time>
      </trkpt>
      <trkpt lat="44.36761" lon="2.00139">
        <ele>314</ele>
        <time>2007-03-11T12:21:28.000Z</time>
      </trkpt>
      <trkpt lat="44.36759" lon="2.0013">
        <ele>314</ele>
        <time>2007-03-11T12:21:29.000Z</time>
      </trkpt>
      <trkpt lat="44.36753" lon="2.00101">
        <ele>314</ele>
        <time>2007-03-11T12:21:32.000Z</time>
      </trkpt>
      <trkpt lat="44.36752" lon="1.99984">
        <ele>315</ele>
        <time>2007-03-11T12:21:47.000Z</time>
      </trkpt>
      <trkpt lat="44.36729" lon="1.9997">
        <ele>315</ele>
        <time>2007-03-11T12:21:52.000Z</time>
      </trkpt>
      <trkpt lat="44.36657" lon="1.99969">
        <ele>316</ele>
        <time>2007-03-11T12:22:07.000Z</time>
      </trkpt>
      <trkpt lat="44.36649" lon="1.99969">
        <ele>318</ele>
        <time>2007-03-11T12:22:10.000Z</time>
      </trkpt>
      <trkpt lat="44.36613" lon="1.9997">
        <ele>322</ele>
        <time>2007-03-11T12:22:24.000Z</time>
      </trkpt>
      <trkpt lat="44.36583" lon="1.99973">
        <ele>325</ele>
        <time>2007-03-11T12:22:36.000Z</time>
      </trkpt>
      <trkpt lat="44.3656" lon="1.99968">
        <ele>328</ele>
        <time>2007-03-11T12:22:48.000Z</time>
      </trkpt>
      <trkpt lat="44.36557" lon="1.99967">
        <ele>329</ele>
        <time>2007-03-11T12:22:50.000Z</time>
      </trkpt>
      <trkpt lat="44.36531" lon="1.99953">
        <ele>333</ele>
        <time>2007-03-11T12:23:05.000Z</time>
      </trkpt>
      <trkpt lat="44.3649" lon="1.99917">
        <ele>335</ele>
        <time>2007-03-11T12:23:28.000Z</time>
      </trkpt>
      <trkpt lat="44.36448" lon="1.9989">
        <ele>338</ele>
        <time>2007-03-11T12:23:47.000Z</time>
      </trkpt>
      <trkpt lat="44.36393" lon="1.99856">
        <ele>337</ele>
        <time>2007-03-11T12:24:04.000Z</time>
      </trkpt>
      <trkpt lat="44.36355" lon="1.99804">
        <ele>338</ele>
        <time>2007-03-11T12:24:20.000Z</time>
      </trkpt>
      <trkpt lat="44.3633" lon="1.99731">
        <ele>341</ele>
        <time>2007-03-11T12:24:38.000Z</time>
      </trkpt>
      <trkpt lat="44.36302" lon="1.99661">
        <ele>344</ele>
        <time>2007-03-11T12:24:56.000Z</time>
      </trkpt>
      <trkpt lat="44.36282" lon="1.99641">
        <ele>345</ele>
        <time>2007-03-11T12:25:05.000Z</time>
      </trkpt>
      <trkpt lat="44.36278" lon="1.99648">
        <ele>345</ele>
        <time>2007-03-11T12:25:18.000Z</time>
      </trkpt>
      <trkpt lat="44.36276" lon="1.99649">
        <ele>345</ele>
        <time>2007-03-11T12:25:52.000Z</time>
      </trkpt>
      <trkpt lat="44.36276" lon="1.99639">
        <ele>345</ele>
        <time>2007-03-11T12:25:59.000Z</time>
      </trkpt>
      <trkpt lat="44.36285" lon="1.99631">
        <ele>345</ele>
        <time>2007-03-11T12:26:05.000Z</time>
      </trkpt>
      <trkpt lat="44.36278" lon="1.99636">
        <ele>345</ele>
        <time>2007-03-11T12:26:12.000Z</time>
      </trkpt>
      <trkpt lat="44.36254" lon="1.99702">
        <ele>340</ele>
        <time>2007-03-11T12:26:27.000Z</time>
      </trkpt>
      <trkpt lat="44.36251" lon="1.99708">
        <ele>346</ele>
        <time>2007-03-11T12:26:28.000Z</time>
      </trkpt>
      <trkpt lat="44.36229" lon="1.99762">
        <ele>343</ele>
        <time>2007-03-11T12:26:37.000Z</time>
      </trkpt>
      <trkpt lat="44.36189" lon="1.9982">
        <ele>344</ele>
        <time>2007-03-11T12:26:47.000Z</time>
      </trkpt>
      <trkpt lat="44.36155" lon="1.99826">
        <ele>345</ele>
        <time>2007-03-11T12:26:54.000Z</time>
      </trkpt>
      <trkpt lat="44.36085" lon="1.99761">
        <ele>345</ele>
        <time>2007-03-11T12:27:10.000Z</time>
      </trkpt>
      <trkpt lat="44.36081" lon="1.99757">
        <ele>345</ele>
        <time>2007-03-11T12:27:11.000Z</time>
      </trkpt>
      <trkpt lat="44.36046" lon="1.99748">
        <ele>345</ele>
        <time>2007-03-11T12:27:18.000Z</time>
      </trkpt>
      <trkpt lat="44.36022" lon="1.9975">
        <ele>347</ele>
        <time>2007-03-11T12:27:23.000Z</time>
      </trkpt>
      <trkpt lat="44.36008" lon="1.99747">
        <ele>347</ele>
        <time>2007-03-11T12:27:26.000Z</time>
      </trkpt>
      <trkpt lat="44.3599" lon="1.99752">
        <ele>347</ele>
        <time>2007-03-11T12:27:30.000Z</time>
      </trkpt>
      <trkpt lat="44.35981" lon="1.99759">
        <ele>346</ele>
        <time>2007-03-11T12:27:32.000Z</time>
      </trkpt>
      <trkpt lat="44.35928" lon="1.99781">
        <ele>346</ele>
        <time>2007-03-11T12:27:42.000Z</time>
      </trkpt>
      <trkpt lat="44.35871" lon="1.99808">
        <ele>345</ele>
        <time>2007-03-11T12:27:52.000Z</time>
      </trkpt>
      <trkpt lat="44.35865" lon="1.99806">
        <ele>345</ele>
        <time>2007-03-11T12:27:53.000Z</time>
      </trkpt>
      <trkpt lat="44.35766" lon="1.99765">
        <ele>345</ele>
        <time>2007-03-11T12:28:11.000Z</time>
      </trkpt>
      <trkpt lat="44.35679" lon="1.99746">
        <ele>346</ele>
        <time>2007-03-11T12:28:28.000Z</time>
      </trkpt>
      <trkpt lat="44.35645" lon="1.99722">
        <ele>350</ele>
        <time>2007-03-11T12:28:38.000Z</time>
      </trkpt>
      <trkpt lat="44.35596" lon="1.99684">
        <ele>352</ele>
        <time>2007-03-11T12:28:55.000Z</time>
      </trkpt>
      <trkpt lat="44.3558" lon="1.99704">
        <ele>351</ele>
        <time>2007-03-11T12:29:02.000Z</time>
      </trkpt>
      <trkpt lat="44.35573" lon="1.99736">
        <ele>350</ele>
        <time>2007-03-11T12:29:07.000Z</time>
      </trkpt>
      <trkpt lat="44.35569" lon="1.99776">
        <ele>349</ele>
        <time>2007-03-11T12:29:12.000Z</time>
      </trkpt>
      <trkpt lat="44.35547" lon="1.99814">
        <ele>348</ele>
        <time>2007-03-11T12:29:18.000Z</time>
      </trkpt>
      <trkpt lat="44.35511" lon="1.99854">
        <ele>349</ele>
        <time>2007-03-11T12:29:29.000Z</time>
      </trkpt>
      <trkpt lat="44.35498" lon="1.99861">
        <ele>349</ele>
        <time>2007-03-11T12:29:35.000Z</time>
      </trkpt>
      <trkpt lat="44.35497" lon="1.99871">
        <ele>349</ele>
        <time>2007-03-11T12:29:39.000Z</time>
      </trkpt>
      <trkpt lat="44.35497" lon="1.99902">
        <ele>348</ele>
        <time>2007-03-11T12:29:46.000Z</time>
      </trkpt>
      <trkpt lat="44.35476" lon="1.99909">
        <ele>348</ele>
        <time>2007-03-11T12:29:54.000Z</time>
      </trkpt>
      <trkpt lat="44.35472" lon="1.99895">
        <ele>349</ele>
        <time>2007-03-11T12:30:05.000Z</time>
      </trkpt>
    </trkseg>
  </trk>
</gpx>